<?xml version="1.0" encoding="UTF-8" standalone="no" ?>
<gpx xmlns="http://www.topografix.com/GPX/1/1" xmlns:xsi="http://www.w3.org/2001/XMLSchema-instance" xsi:schemaLocation="http://www.topografix.com/GPX/1/1 http://www.topografix.com/GPX/1/1/gpx.xsd" version="1.1" creator="VisuGPX - https://www.visugpx.com">
  <metadata>
    <name>Clermont-Ferrand - Massat - Pau par François</name>
    <desc><![CDATA[Trajet effectué par François sur la "Diagonale du vide" en aout 2020]]></desc>
  </metadata>
  <trk>
    <name><![CDATA[route114]]></name>
    <trkseg>
      <trkpt lat="43.21735" lon="2.3695">
        <ele>126.3</ele>
        <time>2020-08-27T05:08:09Z</time>
      </trkpt>
      <trkpt lat="43.21704" lon="2.36823">
        <ele>115.7</ele>
        <time>2020-08-27T05:09:46Z</time>
      </trkpt>
      <trkpt lat="43.21642" lon="2.36731">
        <ele>111</ele>
        <time>2020-08-27T05:10:06Z</time>
      </trkpt>
      <trkpt lat="43.21544" lon="2.36715">
        <ele>108.1</ele>
        <time>2020-08-27T05:10:36Z</time>
      </trkpt>
      <trkpt lat="43.21593" lon="2.36583">
        <ele>104.4</ele>
        <time>2020-08-27T05:11:44Z</time>
      </trkpt>
      <trkpt lat="43.21615" lon="2.36438">
        <ele>102</ele>
        <time>2020-08-27T05:12:09Z</time>
      </trkpt>
      <trkpt lat="43.21621" lon="2.36298">
        <ele>100.9</ele>
        <time>2020-08-27T05:12:34Z</time>
      </trkpt>
      <trkpt lat="43.21539" lon="2.36208">
        <ele>100.2</ele>
        <time>2020-08-27T05:15:39Z</time>
      </trkpt>
      <trkpt lat="43.2143" lon="2.36185">
        <ele>99.8</ele>
        <time>2020-08-27T05:16:04Z</time>
      </trkpt>
      <trkpt lat="43.21329" lon="2.36158">
        <ele>99.3</ele>
        <time>2020-08-27T05:16:29Z</time>
      </trkpt>
      <trkpt lat="43.21236" lon="2.36136">
        <ele>99</ele>
        <time>2020-08-27T05:16:54Z</time>
      </trkpt>
      <trkpt lat="43.21132" lon="2.36103">
        <ele>98.9</ele>
        <time>2020-08-27T05:17:24Z</time>
      </trkpt>
      <trkpt lat="43.21035" lon="2.36069">
        <ele>99</ele>
        <time>2020-08-27T05:17:49Z</time>
      </trkpt>
      <trkpt lat="43.20937" lon="2.36016">
        <ele>98.9</ele>
        <time>2020-08-27T05:18:19Z</time>
      </trkpt>
      <trkpt lat="43.20846" lon="2.35946">
        <ele>98.4</ele>
        <time>2020-08-27T05:18:49Z</time>
      </trkpt>
      <trkpt lat="43.20752" lon="2.35931">
        <ele>98.5</ele>
        <time>2020-08-27T05:19:14Z</time>
      </trkpt>
      <trkpt lat="43.20652" lon="2.35942">
        <ele>98.1</ele>
        <time>2020-08-27T05:19:44Z</time>
      </trkpt>
      <trkpt lat="43.20547" lon="2.35947">
        <ele>98.4</ele>
        <time>2020-08-27T05:20:14Z</time>
      </trkpt>
      <trkpt lat="43.20454" lon="2.35958">
        <ele>98.5</ele>
        <time>2020-08-27T05:20:39Z</time>
      </trkpt>
      <trkpt lat="43.20366" lon="2.36011">
        <ele>99.1</ele>
        <time>2020-08-27T05:21:09Z</time>
      </trkpt>
      <trkpt lat="43.20272" lon="2.35964">
        <ele>99.7</ele>
        <time>2020-08-27T05:21:39Z</time>
      </trkpt>
      <trkpt lat="43.2017" lon="2.35987">
        <ele>100.2</ele>
        <time>2020-08-27T05:22:09Z</time>
      </trkpt>
      <trkpt lat="43.20102" lon="2.35902">
        <ele>100.8</ele>
        <time>2020-08-27T05:22:44Z</time>
      </trkpt>
      <trkpt lat="43.20018" lon="2.35841">
        <ele>102.1</ele>
        <time>2020-08-27T05:23:29Z</time>
      </trkpt>
      <trkpt lat="43.19926" lon="2.3581">
        <ele>103.9</ele>
        <time>2020-08-27T05:24:22Z</time>
      </trkpt>
      <trkpt lat="43.1983" lon="2.35783">
        <ele>105.5</ele>
        <time>2020-08-27T05:25:18Z</time>
      </trkpt>
      <trkpt lat="43.19741" lon="2.35756">
        <ele>106.6</ele>
        <time>2020-08-27T05:25:53Z</time>
      </trkpt>
      <trkpt lat="43.1969" lon="2.35878">
        <ele>108.5</ele>
        <time>2020-08-27T05:26:28Z</time>
      </trkpt>
      <trkpt lat="43.1963" lon="2.35981">
        <ele>109.4</ele>
        <time>2020-08-27T05:26:58Z</time>
      </trkpt>
      <trkpt lat="43.19563" lon="2.36074">
        <ele>110.4</ele>
        <time>2020-08-27T05:27:43Z</time>
      </trkpt>
      <trkpt lat="43.19499" lon="2.36164">
        <ele>111.8</ele>
        <time>2020-08-27T05:28:28Z</time>
      </trkpt>
      <trkpt lat="43.19411" lon="2.36195">
        <ele>113.6</ele>
        <time>2020-08-27T05:29:13Z</time>
      </trkpt>
      <trkpt lat="43.19321" lon="2.36201">
        <ele>115</ele>
        <time>2020-08-27T05:29:48Z</time>
      </trkpt>
      <trkpt lat="43.19231" lon="2.36201">
        <ele>116.5</ele>
        <time>2020-08-27T05:30:23Z</time>
      </trkpt>
      <trkpt lat="43.19133" lon="2.36197">
        <ele>118.3</ele>
        <time>2020-08-27T05:31:12Z</time>
      </trkpt>
      <trkpt lat="43.19044" lon="2.36216">
        <ele>120.2</ele>
        <time>2020-08-27T05:32:03Z</time>
      </trkpt>
      <trkpt lat="43.18952" lon="2.36207">
        <ele>122.2</ele>
        <time>2020-08-27T05:32:48Z</time>
      </trkpt>
      <trkpt lat="43.18851" lon="2.36197">
        <ele>125.5</ele>
        <time>2020-08-27T05:33:18Z</time>
      </trkpt>
      <trkpt lat="43.18754" lon="2.36187">
        <ele>126.1</ele>
        <time>2020-08-27T05:33:33Z</time>
      </trkpt>
      <trkpt lat="43.18644" lon="2.36173">
        <ele>126.3</ele>
        <time>2020-08-27T05:33:48Z</time>
      </trkpt>
      <trkpt lat="43.18547" lon="2.36165">
        <ele>127.4</ele>
        <time>2020-08-27T05:34:03Z</time>
      </trkpt>
      <trkpt lat="43.18448" lon="2.36156">
        <ele>127.4</ele>
        <time>2020-08-27T05:34:18Z</time>
      </trkpt>
      <trkpt lat="43.18341" lon="2.3614">
        <ele>129.2</ele>
        <time>2020-08-27T05:34:38Z</time>
      </trkpt>
      <trkpt lat="43.18247" lon="2.36131">
        <ele>131</ele>
        <time>2020-08-27T05:35:09Z</time>
      </trkpt>
      <trkpt lat="43.18144" lon="2.36127">
        <ele>135.7</ele>
        <time>2020-08-27T05:35:46Z</time>
      </trkpt>
      <trkpt lat="43.18048" lon="2.36088">
        <ele>134.1</ele>
        <time>2020-08-27T05:36:01Z</time>
      </trkpt>
      <trkpt lat="43.17962" lon="2.36046">
        <ele>135.7</ele>
        <time>2020-08-27T05:36:31Z</time>
      </trkpt>
      <trkpt lat="43.17877" lon="2.35958">
        <ele>131.3</ele>
        <time>2020-08-27T05:36:57Z</time>
      </trkpt>
      <trkpt lat="43.17801" lon="2.35861">
        <ele>129.3</ele>
        <time>2020-08-27T05:37:17Z</time>
      </trkpt>
      <trkpt lat="43.17724" lon="2.35764">
        <ele>130.7</ele>
        <time>2020-08-27T05:37:42Z</time>
      </trkpt>
      <trkpt lat="43.17632" lon="2.35706">
        <ele>131.4</ele>
        <time>2020-08-27T05:38:17Z</time>
      </trkpt>
      <trkpt lat="43.17581" lon="2.35596">
        <ele>131.7</ele>
        <time>2020-08-27T05:38:57Z</time>
      </trkpt>
      <trkpt lat="43.17523" lon="2.35489">
        <ele>135.3</ele>
        <time>2020-08-27T05:39:59Z</time>
      </trkpt>
      <trkpt lat="43.17469" lon="2.35377">
        <ele>139.4</ele>
        <time>2020-08-27T05:40:52Z</time>
      </trkpt>
      <trkpt lat="43.17411" lon="2.35279">
        <ele>142.7</ele>
        <time>2020-08-27T05:41:33Z</time>
      </trkpt>
      <trkpt lat="43.17379" lon="2.3515">
        <ele>145.4</ele>
        <time>2020-08-27T05:42:08Z</time>
      </trkpt>
      <trkpt lat="43.17361" lon="2.35016">
        <ele>147.8</ele>
        <time>2020-08-27T05:42:48Z</time>
      </trkpt>
      <trkpt lat="43.17315" lon="2.34901">
        <ele>149.5</ele>
        <time>2020-08-27T05:43:28Z</time>
      </trkpt>
      <trkpt lat="43.17257" lon="2.348">
        <ele>151.5</ele>
        <time>2020-08-27T05:44:04Z</time>
      </trkpt>
      <trkpt lat="43.17248" lon="2.34673">
        <ele>153.5</ele>
        <time>2020-08-27T05:44:50Z</time>
      </trkpt>
      <trkpt lat="43.17251" lon="2.34541">
        <ele>154.8</ele>
        <time>2020-08-27T05:45:30Z</time>
      </trkpt>
      <trkpt lat="43.17268" lon="2.344">
        <ele>155.5</ele>
        <time>2020-08-27T05:46:10Z</time>
      </trkpt>
      <trkpt lat="43.17273" lon="2.34264">
        <ele>156.2</ele>
        <time>2020-08-27T05:46:35Z</time>
      </trkpt>
      <trkpt lat="43.17229" lon="2.34146">
        <ele>156.3</ele>
        <time>2020-08-27T05:47:00Z</time>
      </trkpt>
      <trkpt lat="43.17143" lon="2.3403">
        <ele>155.5</ele>
        <time>2020-08-27T05:47:15Z</time>
      </trkpt>
      <trkpt lat="43.17068" lon="2.33937">
        <ele>154.5</ele>
        <time>2020-08-27T05:47:35Z</time>
      </trkpt>
      <trkpt lat="43.17031" lon="2.33801">
        <ele>151.4</ele>
        <time>2020-08-27T05:48:00Z</time>
      </trkpt>
      <trkpt lat="43.16972" lon="2.33688">
        <ele>150.2</ele>
        <time>2020-08-27T05:48:15Z</time>
      </trkpt>
      <trkpt lat="43.16932" lon="2.33575">
        <ele>148.8</ele>
        <time>2020-08-27T05:48:35Z</time>
      </trkpt>
      <trkpt lat="43.16869" lon="2.33484">
        <ele>148.2</ele>
        <time>2020-08-27T05:49:05Z</time>
      </trkpt>
      <trkpt lat="43.1682" lon="2.33355">
        <ele>145.6</ele>
        <time>2020-08-27T05:49:35Z</time>
      </trkpt>
      <trkpt lat="43.16786" lon="2.33236">
        <ele>146.7</ele>
        <time>2020-08-27T05:50:21Z</time>
      </trkpt>
      <trkpt lat="43.16788" lon="2.33099">
        <ele>147.1</ele>
        <time>2020-08-27T05:51:01Z</time>
      </trkpt>
      <trkpt lat="43.16796" lon="2.32972">
        <ele>147.6</ele>
        <time>2020-08-27T05:51:36Z</time>
      </trkpt>
      <trkpt lat="43.16737" lon="2.32874">
        <ele>150.2</ele>
        <time>2020-08-27T05:52:22Z</time>
      </trkpt>
      <trkpt lat="43.16772" lon="2.32746">
        <ele>151.3</ele>
        <time>2020-08-27T05:52:47Z</time>
      </trkpt>
      <trkpt lat="43.16829" lon="2.32649">
        <ele>151</ele>
        <time>2020-08-27T05:53:12Z</time>
      </trkpt>
      <trkpt lat="43.16888" lon="2.32551">
        <ele>150.8</ele>
        <time>2020-08-27T05:53:37Z</time>
      </trkpt>
      <trkpt lat="43.16937" lon="2.32443">
        <ele>147.1</ele>
        <time>2020-08-27T05:54:11Z</time>
      </trkpt>
      <trkpt lat="43.16997" lon="2.32306">
        <ele>143.6</ele>
        <time>2020-08-27T05:54:31Z</time>
      </trkpt>
      <trkpt lat="43.16918" lon="2.32233">
        <ele>144.2</ele>
        <time>2020-08-27T05:55:38Z</time>
      </trkpt>
      <trkpt lat="43.16827" lon="2.32219">
        <ele>148.5</ele>
        <time>2020-08-27T05:56:30Z</time>
      </trkpt>
      <trkpt lat="43.16729" lon="2.32206">
        <ele>152.3</ele>
        <time>2020-08-27T05:57:23Z</time>
      </trkpt>
      <trkpt lat="43.16632" lon="2.32192">
        <ele>156.6</ele>
        <time>2020-08-27T05:58:26Z</time>
      </trkpt>
      <trkpt lat="43.16533" lon="2.32167">
        <ele>162.6</ele>
        <time>2020-08-27T05:59:33Z</time>
      </trkpt>
      <trkpt lat="43.16449" lon="2.32077">
        <ele>168.3</ele>
        <time>2020-08-27T06:00:14Z</time>
      </trkpt>
      <trkpt lat="43.16392" lon="2.31951">
        <ele>169.1</ele>
        <time>2020-08-27T06:00:29Z</time>
      </trkpt>
      <trkpt lat="43.16281" lon="2.31894">
        <ele>169.4</ele>
        <time>2020-08-27T06:00:44Z</time>
      </trkpt>
      <trkpt lat="43.16175" lon="2.31871">
        <ele>169.5</ele>
        <time>2020-08-27T06:01:04Z</time>
      </trkpt>
      <trkpt lat="43.16085" lon="2.31861">
        <ele>166.8</ele>
        <time>2020-08-27T06:01:29Z</time>
      </trkpt>
      <trkpt lat="43.15974" lon="2.31864">
        <ele>164.2</ele>
        <time>2020-08-27T06:01:49Z</time>
      </trkpt>
      <trkpt lat="43.15875" lon="2.31869">
        <ele>162.2</ele>
        <time>2020-08-27T06:02:04Z</time>
      </trkpt>
      <trkpt lat="43.15753" lon="2.31843">
        <ele>161</ele>
        <time>2020-08-27T06:02:19Z</time>
      </trkpt>
      <trkpt lat="43.15685" lon="2.31751">
        <ele>160</ele>
        <time>2020-08-27T06:02:29Z</time>
      </trkpt>
      <trkpt lat="43.15594" lon="2.31759">
        <ele>159.2</ele>
        <time>2020-08-27T06:02:39Z</time>
      </trkpt>
      <trkpt lat="43.15521" lon="2.3185">
        <ele>154.3</ele>
        <time>2020-08-27T06:02:49Z</time>
      </trkpt>
      <trkpt lat="43.15412" lon="2.31909">
        <ele>151.2</ele>
        <time>2020-08-27T06:03:04Z</time>
      </trkpt>
      <trkpt lat="43.15323" lon="2.3198">
        <ele>147.5</ele>
        <time>2020-08-27T06:03:24Z</time>
      </trkpt>
      <trkpt lat="43.15227" lon="2.32024">
        <ele>143.4</ele>
        <time>2020-08-27T06:03:49Z</time>
      </trkpt>
      <trkpt lat="43.15131" lon="2.3204">
        <ele>140.8</ele>
        <time>2020-08-27T06:04:14Z</time>
      </trkpt>
      <trkpt lat="43.15041" lon="2.32027">
        <ele>140.4</ele>
        <time>2020-08-27T06:04:39Z</time>
      </trkpt>
      <trkpt lat="43.14932" lon="2.32026">
        <ele>137.8</ele>
        <time>2020-08-27T06:05:09Z</time>
      </trkpt>
      <trkpt lat="43.14874" lon="2.3214">
        <ele>135.8</ele>
        <time>2020-08-27T06:05:34Z</time>
      </trkpt>
      <trkpt lat="43.14801" lon="2.32228">
        <ele>135.2</ele>
        <time>2020-08-27T06:06:04Z</time>
      </trkpt>
      <trkpt lat="43.14703" lon="2.32242">
        <ele>134.4</ele>
        <time>2020-08-27T06:06:29Z</time>
      </trkpt>
      <trkpt lat="43.14619" lon="2.3231">
        <ele>134</ele>
        <time>2020-08-27T06:06:54Z</time>
      </trkpt>
      <trkpt lat="43.14545" lon="2.32384">
        <ele>133.7</ele>
        <time>2020-08-27T06:07:19Z</time>
      </trkpt>
      <trkpt lat="43.14447" lon="2.32425">
        <ele>133.3</ele>
        <time>2020-08-27T06:07:44Z</time>
      </trkpt>
      <trkpt lat="43.14343" lon="2.32437">
        <ele>133.1</ele>
        <time>2020-08-27T06:08:09Z</time>
      </trkpt>
      <trkpt lat="43.14246" lon="2.32397">
        <ele>132.9</ele>
        <time>2020-08-27T06:08:34Z</time>
      </trkpt>
      <trkpt lat="43.1415" lon="2.32414">
        <ele>133.2</ele>
        <time>2020-08-27T06:08:59Z</time>
      </trkpt>
      <trkpt lat="43.14046" lon="2.32432">
        <ele>133.1</ele>
        <time>2020-08-27T06:09:24Z</time>
      </trkpt>
      <trkpt lat="43.13946" lon="2.32402">
        <ele>132.9</ele>
        <time>2020-08-27T06:09:49Z</time>
      </trkpt>
      <trkpt lat="43.13856" lon="2.32369">
        <ele>132.9</ele>
        <time>2020-08-27T06:10:14Z</time>
      </trkpt>
      <trkpt lat="43.13763" lon="2.32334">
        <ele>132.9</ele>
        <time>2020-08-27T06:10:39Z</time>
      </trkpt>
      <trkpt lat="43.13681" lon="2.32276">
        <ele>132.9</ele>
        <time>2020-08-27T06:11:04Z</time>
      </trkpt>
      <trkpt lat="43.13577" lon="2.32241">
        <ele>133</ele>
        <time>2020-08-27T06:11:34Z</time>
      </trkpt>
      <trkpt lat="43.1347" lon="2.32251">
        <ele>133.4</ele>
        <time>2020-08-27T06:12:04Z</time>
      </trkpt>
      <trkpt lat="43.13379" lon="2.32268">
        <ele>133.5</ele>
        <time>2020-08-27T06:12:29Z</time>
      </trkpt>
      <trkpt lat="43.13286" lon="2.3233">
        <ele>133.6</ele>
        <time>2020-08-27T06:12:59Z</time>
      </trkpt>
      <trkpt lat="43.13201" lon="2.32408">
        <ele>133.8</ele>
        <time>2020-08-27T06:13:29Z</time>
      </trkpt>
      <trkpt lat="43.13103" lon="2.32454">
        <ele>134.2</ele>
        <time>2020-08-27T06:13:59Z</time>
      </trkpt>
      <trkpt lat="43.13013" lon="2.32487">
        <ele>134.7</ele>
        <time>2020-08-27T06:14:24Z</time>
      </trkpt>
      <trkpt lat="43.12918" lon="2.32518">
        <ele>135.2</ele>
        <time>2020-08-27T06:14:49Z</time>
      </trkpt>
      <trkpt lat="43.12821" lon="2.32491">
        <ele>135.6</ele>
        <time>2020-08-27T06:15:14Z</time>
      </trkpt>
      <trkpt lat="43.12721" lon="2.32457">
        <ele>135.8</ele>
        <time>2020-08-27T06:16:19Z</time>
      </trkpt>
      <trkpt lat="43.12627" lon="2.32456">
        <ele>136.1</ele>
        <time>2020-08-27T06:16:49Z</time>
      </trkpt>
      <trkpt lat="43.12529" lon="2.32488">
        <ele>136.3</ele>
        <time>2020-08-27T06:17:19Z</time>
      </trkpt>
      <trkpt lat="43.12521" lon="2.32364">
        <ele>138.3</ele>
        <time>2020-08-27T06:19:22Z</time>
      </trkpt>
      <trkpt lat="43.12527" lon="2.32238">
        <ele>139.7</ele>
        <time>2020-08-27T06:20:17Z</time>
      </trkpt>
      <trkpt lat="43.12431" lon="2.32161">
        <ele>141.6</ele>
        <time>2020-08-27T06:20:42Z</time>
      </trkpt>
      <trkpt lat="43.12343" lon="2.32089">
        <ele>141.6</ele>
        <time>2020-08-27T06:21:02Z</time>
      </trkpt>
      <trkpt lat="43.12265" lon="2.3202">
        <ele>141.8</ele>
        <time>2020-08-27T06:21:22Z</time>
      </trkpt>
      <trkpt lat="43.1222" lon="2.31884">
        <ele>142</ele>
        <time>2020-08-27T06:21:47Z</time>
      </trkpt>
      <trkpt lat="43.12188" lon="2.31741">
        <ele>142.3</ele>
        <time>2020-08-27T06:22:12Z</time>
      </trkpt>
      <trkpt lat="43.12125" lon="2.31637">
        <ele>142.4</ele>
        <time>2020-08-27T06:22:42Z</time>
      </trkpt>
      <trkpt lat="43.1203" lon="2.31592">
        <ele>143.1</ele>
        <time>2020-08-27T06:23:26Z</time>
      </trkpt>
      <trkpt lat="43.11942" lon="2.31628">
        <ele>144.8</ele>
        <time>2020-08-27T06:23:56Z</time>
      </trkpt>
      <trkpt lat="43.1185" lon="2.31716">
        <ele>145</ele>
        <time>2020-08-27T06:24:16Z</time>
      </trkpt>
      <trkpt lat="43.11743" lon="2.31734">
        <ele>145.1</ele>
        <time>2020-08-27T06:24:36Z</time>
      </trkpt>
      <trkpt lat="43.11638" lon="2.31693">
        <ele>145.6</ele>
        <time>2020-08-27T06:25:01Z</time>
      </trkpt>
      <trkpt lat="43.11542" lon="2.31664">
        <ele>145.9</ele>
        <time>2020-08-27T06:25:26Z</time>
      </trkpt>
      <trkpt lat="43.11446" lon="2.31648">
        <ele>146.2</ele>
        <time>2020-08-27T06:25:51Z</time>
      </trkpt>
      <trkpt lat="43.11351" lon="2.31635">
        <ele>146.8</ele>
        <time>2020-08-27T06:26:16Z</time>
      </trkpt>
      <trkpt lat="43.11248" lon="2.3161">
        <ele>147.3</ele>
        <time>2020-08-27T06:26:41Z</time>
      </trkpt>
      <trkpt lat="43.11145" lon="2.31592">
        <ele>147.8</ele>
        <time>2020-08-27T06:27:06Z</time>
      </trkpt>
      <trkpt lat="43.11036" lon="2.31607">
        <ele>148.2</ele>
        <time>2020-08-27T06:27:31Z</time>
      </trkpt>
      <trkpt lat="43.10931" lon="2.31642">
        <ele>148.4</ele>
        <time>2020-08-27T06:27:56Z</time>
      </trkpt>
      <trkpt lat="43.10837" lon="2.31684">
        <ele>148.1</ele>
        <time>2020-08-27T06:28:21Z</time>
      </trkpt>
      <trkpt lat="43.10741" lon="2.31729">
        <ele>148</ele>
        <time>2020-08-27T06:28:51Z</time>
      </trkpt>
      <trkpt lat="43.10646" lon="2.31752">
        <ele>148</ele>
        <time>2020-08-27T06:29:21Z</time>
      </trkpt>
      <trkpt lat="43.10555" lon="2.31773">
        <ele>148.2</ele>
        <time>2020-08-27T06:29:51Z</time>
      </trkpt>
      <trkpt lat="43.10465" lon="2.31756">
        <ele>149</ele>
        <time>2020-08-27T06:30:26Z</time>
      </trkpt>
      <trkpt lat="43.10384" lon="2.31686">
        <ele>149.8</ele>
        <time>2020-08-27T06:30:56Z</time>
      </trkpt>
      <trkpt lat="43.10312" lon="2.31586">
        <ele>151.4</ele>
        <time>2020-08-27T06:31:26Z</time>
      </trkpt>
      <trkpt lat="43.10238" lon="2.31466">
        <ele>152.6</ele>
        <time>2020-08-27T06:31:51Z</time>
      </trkpt>
      <trkpt lat="43.1017" lon="2.31353">
        <ele>153.3</ele>
        <time>2020-08-27T06:32:11Z</time>
      </trkpt>
      <trkpt lat="43.10113" lon="2.31228">
        <ele>154</ele>
        <time>2020-08-27T06:32:31Z</time>
      </trkpt>
      <trkpt lat="43.10066" lon="2.3112">
        <ele>154.7</ele>
        <time>2020-08-27T06:32:51Z</time>
      </trkpt>
      <trkpt lat="43.09983" lon="2.31033">
        <ele>155.6</ele>
        <time>2020-08-27T06:33:16Z</time>
      </trkpt>
      <trkpt lat="43.09892" lon="2.31031">
        <ele>155.9</ele>
        <time>2020-08-27T06:33:46Z</time>
      </trkpt>
      <trkpt lat="43.09791" lon="2.30998">
        <ele>156.8</ele>
        <time>2020-08-27T06:34:21Z</time>
      </trkpt>
      <trkpt lat="43.09691" lon="2.30958">
        <ele>158.2</ele>
        <time>2020-08-27T06:35:01Z</time>
      </trkpt>
      <trkpt lat="43.09576" lon="2.30952">
        <ele>161</ele>
        <time>2020-08-27T06:35:26Z</time>
      </trkpt>
      <trkpt lat="43.09518" lon="2.3105">
        <ele>161.5</ele>
        <time>2020-08-27T06:35:46Z</time>
      </trkpt>
      <trkpt lat="43.0946" lon="2.31167">
        <ele>161.9</ele>
        <time>2020-08-27T06:36:11Z</time>
      </trkpt>
      <trkpt lat="43.0938" lon="2.31259">
        <ele>162.2</ele>
        <time>2020-08-27T06:36:41Z</time>
      </trkpt>
      <trkpt lat="43.09286" lon="2.31324">
        <ele>162.3</ele>
        <time>2020-08-27T06:37:11Z</time>
      </trkpt>
      <trkpt lat="43.09193" lon="2.31382">
        <ele>162.6</ele>
        <time>2020-08-27T06:37:41Z</time>
      </trkpt>
      <trkpt lat="43.09112" lon="2.31435">
        <ele>162.8</ele>
        <time>2020-08-27T06:38:06Z</time>
      </trkpt>
      <trkpt lat="43.0903" lon="2.31488">
        <ele>163.1</ele>
        <time>2020-08-27T06:38:31Z</time>
      </trkpt>
      <trkpt lat="43.08995" lon="2.31612">
        <ele>163.6</ele>
        <time>2020-08-27T06:39:01Z</time>
      </trkpt>
      <trkpt lat="43.09009" lon="2.31747">
        <ele>164.2</ele>
        <time>2020-08-27T06:39:31Z</time>
      </trkpt>
      <trkpt lat="43.09023" lon="2.31871">
        <ele>164.8</ele>
        <time>2020-08-27T06:40:01Z</time>
      </trkpt>
      <trkpt lat="43.09037" lon="2.32002">
        <ele>165.6</ele>
        <time>2020-08-27T06:40:31Z</time>
      </trkpt>
      <trkpt lat="43.09053" lon="2.32139">
        <ele>166.3</ele>
        <time>2020-08-27T06:41:01Z</time>
      </trkpt>
      <trkpt lat="43.09067" lon="2.32272">
        <ele>167.1</ele>
        <time>2020-08-27T06:41:31Z</time>
      </trkpt>
      <trkpt lat="43.09082" lon="2.32405">
        <ele>167.9</ele>
        <time>2020-08-27T06:42:01Z</time>
      </trkpt>
      <trkpt lat="43.09096" lon="2.3254">
        <ele>168.6</ele>
        <time>2020-08-27T06:42:31Z</time>
      </trkpt>
      <trkpt lat="43.0911" lon="2.32672">
        <ele>169.4</ele>
        <time>2020-08-27T06:43:01Z</time>
      </trkpt>
      <trkpt lat="43.09125" lon="2.32806">
        <ele>170.2</ele>
        <time>2020-08-27T06:43:31Z</time>
      </trkpt>
      <trkpt lat="43.09139" lon="2.32938">
        <ele>171.1</ele>
        <time>2020-08-27T06:44:01Z</time>
      </trkpt>
      <trkpt lat="43.09159" lon="2.33071">
        <ele>171.9</ele>
        <time>2020-08-27T06:44:31Z</time>
      </trkpt>
      <trkpt lat="43.09212" lon="2.33175">
        <ele>173.4</ele>
        <time>2020-08-27T06:44:56Z</time>
      </trkpt>
      <trkpt lat="43.09271" lon="2.33276">
        <ele>173.7</ele>
        <time>2020-08-27T06:45:21Z</time>
      </trkpt>
      <trkpt lat="43.09343" lon="2.33376">
        <ele>174.2</ele>
        <time>2020-08-27T06:45:56Z</time>
      </trkpt>
      <trkpt lat="43.09388" lon="2.33493">
        <ele>174.9</ele>
        <time>2020-08-27T06:46:26Z</time>
      </trkpt>
      <trkpt lat="43.09441" lon="2.33596">
        <ele>175.5</ele>
        <time>2020-08-27T06:46:51Z</time>
      </trkpt>
      <trkpt lat="43.09536" lon="2.3363">
        <ele>177</ele>
        <time>2020-08-27T06:47:16Z</time>
      </trkpt>
      <trkpt lat="43.0964" lon="2.33647">
        <ele>178</ele>
        <time>2020-08-27T06:47:41Z</time>
      </trkpt>
      <trkpt lat="43.09735" lon="2.33646">
        <ele>178.7</ele>
        <time>2020-08-27T06:48:06Z</time>
      </trkpt>
      <trkpt lat="43.09808" lon="2.3374">
        <ele>179.6</ele>
        <time>2020-08-27T06:48:31Z</time>
      </trkpt>
      <trkpt lat="43.09847" lon="2.33853">
        <ele>180.2</ele>
        <time>2020-08-27T06:48:51Z</time>
      </trkpt>
      <trkpt lat="43.09906" lon="2.33962">
        <ele>180.5</ele>
        <time>2020-08-27T06:49:10Z</time>
      </trkpt>
      <trkpt lat="43.09996" lon="2.3405">
        <ele>181</ele>
        <time>2020-08-27T06:49:35Z</time>
      </trkpt>
      <trkpt lat="43.10105" lon="2.34088">
        <ele>181.3</ele>
        <time>2020-08-27T06:50:00Z</time>
      </trkpt>
      <trkpt lat="43.10215" lon="2.34129">
        <ele>181.6</ele>
        <time>2020-08-27T06:50:25Z</time>
      </trkpt>
      <trkpt lat="43.1031" lon="2.34204">
        <ele>182</ele>
        <time>2020-08-27T06:50:50Z</time>
      </trkpt>
      <trkpt lat="43.10407" lon="2.34248">
        <ele>182.4</ele>
        <time>2020-08-27T06:51:15Z</time>
      </trkpt>
      <trkpt lat="43.10444" lon="2.34363">
        <ele>182.9</ele>
        <time>2020-08-27T06:51:35Z</time>
      </trkpt>
      <trkpt lat="43.10502" lon="2.34494">
        <ele>183.4</ele>
        <time>2020-08-27T06:52:00Z</time>
      </trkpt>
      <trkpt lat="43.10569" lon="2.3458">
        <ele>183.7</ele>
        <time>2020-08-27T06:52:20Z</time>
      </trkpt>
      <trkpt lat="43.10511" lon="2.34674">
        <ele>184</ele>
        <time>2020-08-27T06:52:50Z</time>
      </trkpt>
      <trkpt lat="43.10421" lon="2.34714">
        <ele>184.8</ele>
        <time>2020-08-27T06:53:30Z</time>
      </trkpt>
      <trkpt lat="43.1039" lon="2.34835">
        <ele>186.1</ele>
        <time>2020-08-27T06:53:50Z</time>
      </trkpt>
      <trkpt lat="43.10406" lon="2.34967">
        <ele>186.5</ele>
        <time>2020-08-27T06:54:15Z</time>
      </trkpt>
      <trkpt lat="43.10437" lon="2.35091">
        <ele>186.9</ele>
        <time>2020-08-27T06:54:45Z</time>
      </trkpt>
      <trkpt lat="43.10461" lon="2.35226">
        <ele>187.4</ele>
        <time>2020-08-27T06:55:10Z</time>
      </trkpt>
      <trkpt lat="43.10486" lon="2.35364">
        <ele>187.2</ele>
        <time>2020-08-27T06:55:35Z</time>
      </trkpt>
      <trkpt lat="43.10489" lon="2.35496">
        <ele>187</ele>
        <time>2020-08-27T06:56:05Z</time>
      </trkpt>
      <trkpt lat="43.10474" lon="2.35624">
        <ele>186.2</ele>
        <time>2020-08-27T06:56:35Z</time>
      </trkpt>
      <trkpt lat="43.10447" lon="2.35757">
        <ele>186</ele>
        <time>2020-08-27T06:57:05Z</time>
      </trkpt>
      <trkpt lat="43.10344" lon="2.35782">
        <ele>188</ele>
        <time>2020-08-27T06:57:40Z</time>
      </trkpt>
      <trkpt lat="43.10272" lon="2.35868">
        <ele>196.1</ele>
        <time>2020-08-27T07:07:35Z</time>
      </trkpt>
      <trkpt lat="43.10276" lon="2.35993">
        <ele>196.6</ele>
        <time>2020-08-27T07:08:10Z</time>
      </trkpt>
      <trkpt lat="43.10298" lon="2.36115">
        <ele>196.9</ele>
        <time>2020-08-27T07:08:45Z</time>
      </trkpt>
      <trkpt lat="43.10272" lon="2.36238">
        <ele>197.2</ele>
        <time>2020-08-27T07:09:20Z</time>
      </trkpt>
      <trkpt lat="43.10246" lon="2.36359">
        <ele>197.5</ele>
        <time>2020-08-27T07:09:50Z</time>
      </trkpt>
      <trkpt lat="43.10208" lon="2.36478">
        <ele>197.8</ele>
        <time>2020-08-27T07:10:20Z</time>
      </trkpt>
      <trkpt lat="43.10149" lon="2.36585">
        <ele>198.1</ele>
        <time>2020-08-27T07:10:50Z</time>
      </trkpt>
      <trkpt lat="43.10133" lon="2.36706">
        <ele>198.6</ele>
        <time>2020-08-27T07:11:15Z</time>
      </trkpt>
      <trkpt lat="43.10101" lon="2.36841">
        <ele>198.9</ele>
        <time>2020-08-27T07:11:45Z</time>
      </trkpt>
      <trkpt lat="43.10094" lon="2.36981">
        <ele>199.3</ele>
        <time>2020-08-27T07:12:15Z</time>
      </trkpt>
      <trkpt lat="43.10088" lon="2.37119">
        <ele>199.8</ele>
        <time>2020-08-27T07:12:45Z</time>
      </trkpt>
      <trkpt lat="43.10049" lon="2.37255">
        <ele>200.3</ele>
        <time>2020-08-27T07:13:15Z</time>
      </trkpt>
      <trkpt lat="43.10105" lon="2.37358">
        <ele>201.2</ele>
        <time>2020-08-27T07:13:45Z</time>
      </trkpt>
      <trkpt lat="43.1017" lon="2.37472">
        <ele>202.3</ele>
        <time>2020-08-27T07:14:15Z</time>
      </trkpt>
      <trkpt lat="43.1023" lon="2.37571">
        <ele>203.4</ele>
        <time>2020-08-27T07:14:40Z</time>
      </trkpt>
      <trkpt lat="43.10258" lon="2.37716">
        <ele>204.4</ele>
        <time>2020-08-27T07:15:09Z</time>
      </trkpt>
      <trkpt lat="43.10259" lon="2.37842">
        <ele>204.9</ele>
        <time>2020-08-27T07:15:34Z</time>
      </trkpt>
      <trkpt lat="43.10194" lon="2.37925">
        <ele>205.5</ele>
        <time>2020-08-27T07:15:59Z</time>
      </trkpt>
      <trkpt lat="43.10089" lon="2.37945">
        <ele>205.9</ele>
        <time>2020-08-27T07:16:29Z</time>
      </trkpt>
      <trkpt lat="43.0998" lon="2.37959">
        <ele>207.1</ele>
        <time>2020-08-27T07:16:54Z</time>
      </trkpt>
      <trkpt lat="43.09906" lon="2.38038">
        <ele>208.2</ele>
        <time>2020-08-27T07:17:24Z</time>
      </trkpt>
      <trkpt lat="43.0986" lon="2.3816">
        <ele>209.8</ele>
        <time>2020-08-27T07:17:54Z</time>
      </trkpt>
      <trkpt lat="43.09796" lon="2.38262">
        <ele>212.1</ele>
        <time>2020-08-27T07:18:34Z</time>
      </trkpt>
      <trkpt lat="43.09691" lon="2.38244">
        <ele>215.7</ele>
        <time>2020-08-27T07:19:14Z</time>
      </trkpt>
      <trkpt lat="43.09605" lon="2.38198">
        <ele>219.3</ele>
        <time>2020-08-27T07:19:39Z</time>
      </trkpt>
      <trkpt lat="43.09511" lon="2.38162">
        <ele>219.7</ele>
        <time>2020-08-27T07:20:09Z</time>
      </trkpt>
      <trkpt lat="43.09448" lon="2.38054">
        <ele>220.2</ele>
        <time>2020-08-27T07:20:44Z</time>
      </trkpt>
      <trkpt lat="43.09433" lon="2.3791">
        <ele>219.2</ele>
        <time>2020-08-27T07:21:09Z</time>
      </trkpt>
      <trkpt lat="43.09342" lon="2.37873">
        <ele>219.2</ele>
        <time>2020-08-27T07:21:29Z</time>
      </trkpt>
      <trkpt lat="43.09258" lon="2.37937">
        <ele>219.4</ele>
        <time>2020-08-27T07:21:54Z</time>
      </trkpt>
      <trkpt lat="43.0917" lon="2.37976">
        <ele>221.7</ele>
        <time>2020-08-27T07:22:40Z</time>
      </trkpt>
      <trkpt lat="43.09089" lon="2.37919">
        <ele>224.5</ele>
        <time>2020-08-27T07:23:11Z</time>
      </trkpt>
      <trkpt lat="43.09034" lon="2.37811">
        <ele>226.7</ele>
        <time>2020-08-27T07:23:41Z</time>
      </trkpt>
      <trkpt lat="43.08942" lon="2.37775">
        <ele>227.7</ele>
        <time>2020-08-27T07:24:16Z</time>
      </trkpt>
      <trkpt lat="43.08845" lon="2.37798">
        <ele>228.6</ele>
        <time>2020-08-27T07:24:51Z</time>
      </trkpt>
      <trkpt lat="43.08756" lon="2.37824">
        <ele>229.8</ele>
        <time>2020-08-27T07:25:16Z</time>
      </trkpt>
      <trkpt lat="43.08684" lon="2.3773">
        <ele>230.1</ele>
        <time>2020-08-27T07:25:56Z</time>
      </trkpt>
      <trkpt lat="43.08598" lon="2.37663">
        <ele>231.1</ele>
        <time>2020-08-27T07:26:51Z</time>
      </trkpt>
      <trkpt lat="43.08506" lon="2.3764">
        <ele>232.5</ele>
        <time>2020-08-27T07:27:36Z</time>
      </trkpt>
      <trkpt lat="43.08409" lon="2.37615">
        <ele>233.9</ele>
        <time>2020-08-27T07:28:16Z</time>
      </trkpt>
      <trkpt lat="43.08322" lon="2.37647">
        <ele>235.1</ele>
        <time>2020-08-27T07:28:51Z</time>
      </trkpt>
      <trkpt lat="43.08235" lon="2.3759">
        <ele>236.2</ele>
        <time>2020-08-27T07:29:26Z</time>
      </trkpt>
      <trkpt lat="43.08138" lon="2.37543">
        <ele>237.4</ele>
        <time>2020-08-27T07:30:01Z</time>
      </trkpt>
      <trkpt lat="43.08048" lon="2.37585">
        <ele>238.7</ele>
        <time>2020-08-27T07:30:41Z</time>
      </trkpt>
      <trkpt lat="43.07963" lon="2.37649">
        <ele>240.2</ele>
        <time>2020-08-27T07:31:26Z</time>
      </trkpt>
      <trkpt lat="43.07864" lon="2.37648">
        <ele>241.9</ele>
        <time>2020-08-27T07:32:17Z</time>
      </trkpt>
      <trkpt lat="43.07797" lon="2.37741">
        <ele>243.8</ele>
        <time>2020-08-27T07:33:09Z</time>
      </trkpt>
      <trkpt lat="43.07743" lon="2.3785">
        <ele>246.1</ele>
        <time>2020-08-27T07:33:39Z</time>
      </trkpt>
      <trkpt lat="43.07657" lon="2.37802">
        <ele>247</ele>
        <time>2020-08-27T07:34:09Z</time>
      </trkpt>
      <trkpt lat="43.0763" lon="2.37679">
        <ele>248</ele>
        <time>2020-08-27T07:34:44Z</time>
      </trkpt>
      <trkpt lat="43.07531" lon="2.37632">
        <ele>249.1</ele>
        <time>2020-08-27T07:35:09Z</time>
      </trkpt>
      <trkpt lat="43.0744" lon="2.37648">
        <ele>249.6</ele>
        <time>2020-08-27T07:35:29Z</time>
      </trkpt>
      <trkpt lat="43.07351" lon="2.37601">
        <ele>249.9</ele>
        <time>2020-08-27T07:35:59Z</time>
      </trkpt>
      <trkpt lat="43.07259" lon="2.37584">
        <ele>250.4</ele>
        <time>2020-08-27T07:36:29Z</time>
      </trkpt>
      <trkpt lat="43.07161" lon="2.37558">
        <ele>251.1</ele>
        <time>2020-08-27T07:37:04Z</time>
      </trkpt>
      <trkpt lat="43.07066" lon="2.37516">
        <ele>252.7</ele>
        <time>2020-08-27T07:38:00Z</time>
      </trkpt>
      <trkpt lat="43.0697" lon="2.37512">
        <ele>254.6</ele>
        <time>2020-08-27T07:38:55Z</time>
      </trkpt>
      <trkpt lat="43.06875" lon="2.3751">
        <ele>256.7</ele>
        <time>2020-08-27T07:39:50Z</time>
      </trkpt>
      <trkpt lat="43.06782" lon="2.3754">
        <ele>259</ele>
        <time>2020-08-27T07:40:45Z</time>
      </trkpt>
      <trkpt lat="43.06707" lon="2.37623">
        <ele>261.9</ele>
        <time>2020-08-27T07:41:49Z</time>
      </trkpt>
      <trkpt lat="43.0667" lon="2.37746">
        <ele>265.1</ele>
        <time>2020-08-27T07:42:42Z</time>
      </trkpt>
      <trkpt lat="43.066" lon="2.37825">
        <ele>267.6</ele>
        <time>2020-08-27T07:43:22Z</time>
      </trkpt>
      <trkpt lat="43.0654" lon="2.3793">
        <ele>274.4</ele>
        <time>2020-08-27T07:44:12Z</time>
      </trkpt>
      <trkpt lat="43.06481" lon="2.38033">
        <ele>281</ele>
        <time>2020-08-27T07:45:00Z</time>
      </trkpt>
      <trkpt lat="43.0639" lon="2.38117">
        <ele>288</ele>
        <time>2020-08-27T07:45:30Z</time>
      </trkpt>
      <trkpt lat="43.06334" lon="2.38235">
        <ele>290.6</ele>
        <time>2020-08-27T07:45:50Z</time>
      </trkpt>
      <trkpt lat="43.06308" lon="2.38357">
        <ele>291</ele>
        <time>2020-08-27T07:46:32Z</time>
      </trkpt>
      <trkpt lat="43.06313" lon="2.38482">
        <ele>293.2</ele>
        <time>2020-08-27T07:47:19Z</time>
      </trkpt>
      <trkpt lat="43.06308" lon="2.38614">
        <ele>296.4</ele>
        <time>2020-08-27T07:48:09Z</time>
      </trkpt>
      <trkpt lat="43.06288" lon="2.38747">
        <ele>299.8</ele>
        <time>2020-08-27T07:49:04Z</time>
      </trkpt>
      <trkpt lat="43.06238" lon="2.38848">
        <ele>302.3</ele>
        <time>2020-08-27T07:49:46Z</time>
      </trkpt>
      <trkpt lat="43.06153" lon="2.38944">
        <ele>306.3</ele>
        <time>2020-08-27T07:50:16Z</time>
      </trkpt>
      <trkpt lat="43.06113" lon="2.39058">
        <ele>307</ele>
        <time>2020-08-27T07:50:31Z</time>
      </trkpt>
      <trkpt lat="43.06078" lon="2.39197">
        <ele>308.7</ele>
        <time>2020-08-27T07:50:51Z</time>
      </trkpt>
      <trkpt lat="43.06106" lon="2.39319">
        <ele>310.2</ele>
        <time>2020-08-27T07:51:21Z</time>
      </trkpt>
      <trkpt lat="43.06156" lon="2.3943">
        <ele>312</ele>
        <time>2020-08-27T07:52:10Z</time>
      </trkpt>
      <trkpt lat="43.06209" lon="2.3954">
        <ele>317.4</ele>
        <time>2020-08-27T07:53:08Z</time>
      </trkpt>
      <trkpt lat="43.06226" lon="2.39685">
        <ele>321.2</ele>
        <time>2020-08-27T07:53:43Z</time>
      </trkpt>
      <trkpt lat="43.06181" lon="2.39793">
        <ele>322.5</ele>
        <time>2020-08-27T07:54:08Z</time>
      </trkpt>
      <trkpt lat="43.06151" lon="2.39925">
        <ele>323.3</ele>
        <time>2020-08-27T07:54:38Z</time>
      </trkpt>
      <trkpt lat="43.06062" lon="2.39997">
        <ele>324.8</ele>
        <time>2020-08-27T07:55:08Z</time>
      </trkpt>
      <trkpt lat="43.0599" lon="2.40076">
        <ele>327.7</ele>
        <time>2020-08-27T07:55:43Z</time>
      </trkpt>
      <trkpt lat="43.05903" lon="2.4013">
        <ele>331.8</ele>
        <time>2020-08-27T07:56:23Z</time>
      </trkpt>
      <trkpt lat="43.05838" lon="2.40244">
        <ele>334.7</ele>
        <time>2020-08-27T07:56:58Z</time>
      </trkpt>
      <trkpt lat="43.05801" lon="2.40369">
        <ele>336</ele>
        <time>2020-08-27T07:57:18Z</time>
      </trkpt>
      <trkpt lat="43.05778" lon="2.40507">
        <ele>336</ele>
        <time>2020-08-27T07:57:38Z</time>
      </trkpt>
      <trkpt lat="43.05748" lon="2.40633">
        <ele>336</ele>
        <time>2020-08-27T07:58:03Z</time>
      </trkpt>
      <trkpt lat="43.05695" lon="2.40739">
        <ele>336.3</ele>
        <time>2020-08-27T07:58:33Z</time>
      </trkpt>
      <trkpt lat="43.05636" lon="2.40836">
        <ele>336.9</ele>
        <time>2020-08-27T07:59:03Z</time>
      </trkpt>
      <trkpt lat="43.05609" lon="2.40963">
        <ele>337.7</ele>
        <time>2020-08-27T07:59:43Z</time>
      </trkpt>
      <trkpt lat="43.0553" lon="2.41046">
        <ele>338.6</ele>
        <time>2020-08-27T08:00:23Z</time>
      </trkpt>
      <trkpt lat="43.05486" lon="2.41155">
        <ele>339.1</ele>
        <time>2020-08-27T08:00:53Z</time>
      </trkpt>
      <trkpt lat="43.05401" lon="2.41226">
        <ele>339.7</ele>
        <time>2020-08-27T08:01:23Z</time>
      </trkpt>
      <trkpt lat="43.05338" lon="2.4132">
        <ele>340.4</ele>
        <time>2020-08-27T08:01:53Z</time>
      </trkpt>
      <trkpt lat="43.05287" lon="2.41433">
        <ele>342</ele>
        <time>2020-08-27T08:02:18Z</time>
      </trkpt>
      <trkpt lat="43.05208" lon="2.41493">
        <ele>342.3</ele>
        <time>2020-08-27T08:02:48Z</time>
      </trkpt>
      <trkpt lat="43.05116" lon="2.41506">
        <ele>343</ele>
        <time>2020-08-27T08:03:23Z</time>
      </trkpt>
      <trkpt lat="43.0502" lon="2.41506">
        <ele>344.1</ele>
        <time>2020-08-27T08:03:58Z</time>
      </trkpt>
      <trkpt lat="43.04926" lon="2.41551">
        <ele>345.1</ele>
        <time>2020-08-27T08:04:32Z</time>
      </trkpt>
      <trkpt lat="43.04881" lon="2.41682">
        <ele>347.5</ele>
        <time>2020-08-27T08:05:02Z</time>
      </trkpt>
      <trkpt lat="43.0484" lon="2.41808">
        <ele>348.2</ele>
        <time>2020-08-27T08:05:32Z</time>
      </trkpt>
      <trkpt lat="43.04768" lon="2.41893">
        <ele>349.5</ele>
        <time>2020-08-27T08:06:12Z</time>
      </trkpt>
      <trkpt lat="43.04695" lon="2.41994">
        <ele>352.1</ele>
        <time>2020-08-27T08:06:47Z</time>
      </trkpt>
      <trkpt lat="43.04609" lon="2.42084">
        <ele>352.8</ele>
        <time>2020-08-27T08:07:07Z</time>
      </trkpt>
      <trkpt lat="43.04524" lon="2.42138">
        <ele>352.9</ele>
        <time>2020-08-27T08:07:27Z</time>
      </trkpt>
      <trkpt lat="43.04455" lon="2.42041">
        <ele>353.1</ele>
        <time>2020-08-27T08:07:57Z</time>
      </trkpt>
      <trkpt lat="43.04366" lon="2.42003">
        <ele>353.4</ele>
        <time>2020-08-27T08:08:27Z</time>
      </trkpt>
      <trkpt lat="43.04265" lon="2.42001">
        <ele>353.8</ele>
        <time>2020-08-27T08:09:07Z</time>
      </trkpt>
      <trkpt lat="43.04165" lon="2.42004">
        <ele>354.4</ele>
        <time>2020-08-27T08:09:47Z</time>
      </trkpt>
      <trkpt lat="43.04075" lon="2.42036">
        <ele>355</ele>
        <time>2020-08-27T08:10:22Z</time>
      </trkpt>
      <trkpt lat="43.03975" lon="2.42025">
        <ele>355.8</ele>
        <time>2020-08-27T08:10:57Z</time>
      </trkpt>
      <trkpt lat="43.03936" lon="2.41907">
        <ele>357.4</ele>
        <time>2020-08-27T08:11:47Z</time>
      </trkpt>
      <trkpt lat="43.03885" lon="2.4179">
        <ele>359.1</ele>
        <time>2020-08-27T08:12:27Z</time>
      </trkpt>
      <trkpt lat="43.0381" lon="2.41873">
        <ele>360.9</ele>
        <time>2020-08-27T08:13:17Z</time>
      </trkpt>
      <trkpt lat="43.0372" lon="2.4186">
        <ele>362.2</ele>
        <time>2020-08-27T08:13:57Z</time>
      </trkpt>
      <trkpt lat="43.0372" lon="2.41724">
        <ele>364</ele>
        <time>2020-08-27T08:14:42Z</time>
      </trkpt>
      <trkpt lat="43.03713" lon="2.41596">
        <ele>366.4</ele>
        <time>2020-08-27T08:15:22Z</time>
      </trkpt>
      <trkpt lat="43.03615" lon="2.41563">
        <ele>368.7</ele>
        <time>2020-08-27T08:16:02Z</time>
      </trkpt>
      <trkpt lat="43.0353" lon="2.41511">
        <ele>370.6</ele>
        <time>2020-08-27T08:16:42Z</time>
      </trkpt>
      <trkpt lat="43.0344" lon="2.41495">
        <ele>372.7</ele>
        <time>2020-08-27T08:17:29Z</time>
      </trkpt>
      <trkpt lat="43.03346" lon="2.41454">
        <ele>377.3</ele>
        <time>2020-08-27T08:18:26Z</time>
      </trkpt>
      <trkpt lat="43.03258" lon="2.41478">
        <ele>382.8</ele>
        <time>2020-08-27T08:19:17Z</time>
      </trkpt>
      <trkpt lat="43.03163" lon="2.41511">
        <ele>391.6</ele>
        <time>2020-08-27T08:20:11Z</time>
      </trkpt>
      <trkpt lat="43.03074" lon="2.41555">
        <ele>401.6</ele>
        <time>2020-08-27T08:21:07Z</time>
      </trkpt>
      <trkpt lat="43.0308" lon="2.41682">
        <ele>418</ele>
        <time>2020-08-27T08:30:07Z</time>
      </trkpt>
      <trkpt lat="43.03104" lon="2.4181">
        <ele>422.9</ele>
        <time>2020-08-27T08:31:06Z</time>
      </trkpt>
      <trkpt lat="43.03148" lon="2.41926">
        <ele>425.3</ele>
        <time>2020-08-27T08:31:59Z</time>
      </trkpt>
      <trkpt lat="43.03171" lon="2.42056">
        <ele>426.9</ele>
        <time>2020-08-27T08:33:00Z</time>
      </trkpt>
      <trkpt lat="43.03194" lon="2.42184">
        <ele>428.2</ele>
        <time>2020-08-27T08:34:06Z</time>
      </trkpt>
      <trkpt lat="43.03212" lon="2.42312">
        <ele>429.9</ele>
        <time>2020-08-27T08:35:11Z</time>
      </trkpt>
      <trkpt lat="43.03214" lon="2.42446">
        <ele>431.9</ele>
        <time>2020-08-27T08:36:17Z</time>
      </trkpt>
      <trkpt lat="43.03203" lon="2.42577">
        <ele>434.5</ele>
        <time>2020-08-27T08:37:21Z</time>
      </trkpt>
      <trkpt lat="43.03201" lon="2.4271">
        <ele>437.8</ele>
        <time>2020-08-27T08:38:26Z</time>
      </trkpt>
      <trkpt lat="43.03214" lon="2.42842">
        <ele>441.9</ele>
        <time>2020-08-27T08:39:34Z</time>
      </trkpt>
      <trkpt lat="43.03224" lon="2.42974">
        <ele>446.4</ele>
        <time>2020-08-27T08:40:40Z</time>
      </trkpt>
      <trkpt lat="43.03241" lon="2.43103">
        <ele>451.5</ele>
        <time>2020-08-27T08:41:46Z</time>
      </trkpt>
      <trkpt lat="43.03231" lon="2.43232">
        <ele>459.3</ele>
        <time>2020-08-27T08:42:56Z</time>
      </trkpt>
      <trkpt lat="43.03211" lon="2.43359">
        <ele>473.9</ele>
        <time>2020-08-27T08:44:05Z</time>
      </trkpt>
      <trkpt lat="43.03216" lon="2.43493">
        <ele>488.1</ele>
        <time>2020-08-27T08:45:15Z</time>
      </trkpt>
      <trkpt lat="43.032" lon="2.43625">
        <ele>496.8</ele>
        <time>2020-08-27T08:46:20Z</time>
      </trkpt>
      <trkpt lat="43.03182" lon="2.43753">
        <ele>504.8</ele>
        <time>2020-08-27T08:47:27Z</time>
      </trkpt>
      <trkpt lat="43.03115" lon="2.43844">
        <ele>510.8</ele>
        <time>2020-08-27T08:48:39Z</time>
      </trkpt>
      <trkpt lat="43.0306" lon="2.43941">
        <ele>514.9</ele>
        <time>2020-08-27T08:49:40Z</time>
      </trkpt>
      <trkpt lat="43.02992" lon="2.43856">
        <ele>522.3</ele>
        <time>2020-08-27T08:51:28Z</time>
      </trkpt>
      <trkpt lat="43.02936" lon="2.43961">
        <ele>525.9</ele>
        <time>2020-08-27T08:52:13Z</time>
      </trkpt>
      <trkpt lat="43.02902" lon="2.44103">
        <ele>533.2</ele>
        <time>2020-08-27T08:52:38Z</time>
      </trkpt>
      <trkpt lat="43.02856" lon="2.44235">
        <ele>535</ele>
        <time>2020-08-27T08:53:03Z</time>
      </trkpt>
      <trkpt lat="43.02821" lon="2.44357">
        <ele>536.7</ele>
        <time>2020-08-27T08:53:23Z</time>
      </trkpt>
      <trkpt lat="43.02766" lon="2.44461">
        <ele>537.7</ele>
        <time>2020-08-27T08:53:43Z</time>
      </trkpt>
      <trkpt lat="43.02722" lon="2.44597">
        <ele>539</ele>
        <time>2020-08-27T08:54:02Z</time>
      </trkpt>
      <trkpt lat="43.02712" lon="2.44726">
        <ele>540.2</ele>
        <time>2020-08-27T08:54:40Z</time>
      </trkpt>
      <trkpt lat="43.0269" lon="2.44854">
        <ele>541.9</ele>
        <time>2020-08-27T08:55:39Z</time>
      </trkpt>
      <trkpt lat="43.02672" lon="2.44981">
        <ele>544.6</ele>
        <time>2020-08-27T08:56:47Z</time>
      </trkpt>
      <trkpt lat="43.02621" lon="2.45092">
        <ele>547.7</ele>
        <time>2020-08-27T08:57:52Z</time>
      </trkpt>
      <trkpt lat="43.02584" lon="2.45205">
        <ele>551.2</ele>
        <time>2020-08-27T08:58:46Z</time>
      </trkpt>
      <trkpt lat="43.02536" lon="2.45317">
        <ele>555.8</ele>
        <time>2020-08-27T08:59:43Z</time>
      </trkpt>
      <trkpt lat="43.02487" lon="2.45419">
        <ele>560.7</ele>
        <time>2020-08-27T09:00:37Z</time>
      </trkpt>
      <trkpt lat="43.02417" lon="2.45496">
        <ele>567.1</ele>
        <time>2020-08-27T09:01:02Z</time>
      </trkpt>
      <trkpt lat="43.02398" lon="2.45617">
        <ele>568.2</ele>
        <time>2020-08-27T09:01:12Z</time>
      </trkpt>
      <trkpt lat="43.02347" lon="2.45741">
        <ele>566.4</ele>
        <time>2020-08-27T09:01:27Z</time>
      </trkpt>
      <trkpt lat="43.02272" lon="2.45896">
        <ele>563.4</ele>
        <time>2020-08-27T09:01:42Z</time>
      </trkpt>
      <trkpt lat="43.02233" lon="2.46054">
        <ele>562.9</ele>
        <time>2020-08-27T09:01:57Z</time>
      </trkpt>
      <trkpt lat="43.02244" lon="2.46184">
        <ele>559.4</ele>
        <time>2020-08-27T09:02:07Z</time>
      </trkpt>
      <trkpt lat="43.02232" lon="2.46336">
        <ele>556.9</ele>
        <time>2020-08-27T09:02:17Z</time>
      </trkpt>
      <trkpt lat="43.02245" lon="2.46484">
        <ele>550.5</ele>
        <time>2020-08-27T09:02:27Z</time>
      </trkpt>
      <trkpt lat="43.02263" lon="2.46636">
        <ele>546.5</ele>
        <time>2020-08-27T09:02:37Z</time>
      </trkpt>
      <trkpt lat="43.02241" lon="2.46795">
        <ele>545.7</ele>
        <time>2020-08-27T09:02:47Z</time>
      </trkpt>
      <trkpt lat="43.02207" lon="2.46956">
        <ele>543.5</ele>
        <time>2020-08-27T09:02:57Z</time>
      </trkpt>
      <trkpt lat="43.02158" lon="2.47103">
        <ele>539.1</ele>
        <time>2020-08-27T09:03:07Z</time>
      </trkpt>
      <trkpt lat="43.02114" lon="2.47232">
        <ele>528</ele>
        <time>2020-08-27T09:03:17Z</time>
      </trkpt>
      <trkpt lat="43.0202" lon="2.47274">
        <ele>510.3</ele>
        <time>2020-08-27T09:03:32Z</time>
      </trkpt>
      <trkpt lat="43.0197" lon="2.47377">
        <ele>503</ele>
        <time>2020-08-27T09:03:42Z</time>
      </trkpt>
      <trkpt lat="43.01942" lon="2.47493">
        <ele>497.8</ele>
        <time>2020-08-27T09:03:52Z</time>
      </trkpt>
      <trkpt lat="43.01889" lon="2.47605">
        <ele>494.4</ele>
        <time>2020-08-27T09:04:02Z</time>
      </trkpt>
      <trkpt lat="43.01824" lon="2.47708">
        <ele>491.8</ele>
        <time>2020-08-27T09:04:12Z</time>
      </trkpt>
      <trkpt lat="43.01932" lon="2.4763">
        <ele>477.4</ele>
        <time>2020-08-27T09:04:47Z</time>
      </trkpt>
      <trkpt lat="43.01899" lon="2.47764">
        <ele>463.4</ele>
        <time>2020-08-27T09:05:12Z</time>
      </trkpt>
      <trkpt lat="43.0184" lon="2.47902">
        <ele>452.6</ele>
        <time>2020-08-27T09:05:22Z</time>
      </trkpt>
      <trkpt lat="43.01784" lon="2.48023">
        <ele>449.3</ele>
        <time>2020-08-27T09:05:32Z</time>
      </trkpt>
      <trkpt lat="43.01675" lon="2.481">
        <ele>438.7</ele>
        <time>2020-08-27T09:05:47Z</time>
      </trkpt>
      <trkpt lat="43.01645" lon="2.48224">
        <ele>431.3</ele>
        <time>2020-08-27T09:05:57Z</time>
      </trkpt>
      <trkpt lat="43.01599" lon="2.48336">
        <ele>426.7</ele>
        <time>2020-08-27T09:06:07Z</time>
      </trkpt>
      <trkpt lat="43.01545" lon="2.48467">
        <ele>415.5</ele>
        <time>2020-08-27T09:06:22Z</time>
      </trkpt>
      <trkpt lat="43.01462" lon="2.48605">
        <ele>414</ele>
        <time>2020-08-27T09:06:37Z</time>
      </trkpt>
      <trkpt lat="43.01397" lon="2.48699">
        <ele>411.2</ele>
        <time>2020-08-27T09:06:47Z</time>
      </trkpt>
      <trkpt lat="43.01302" lon="2.48618">
        <ele>387.5</ele>
        <time>2020-08-27T09:07:17Z</time>
      </trkpt>
      <trkpt lat="43.01257" lon="2.48487">
        <ele>379.8</ele>
        <time>2020-08-27T09:07:32Z</time>
      </trkpt>
      <trkpt lat="43.01276" lon="2.48367">
        <ele>374</ele>
        <time>2020-08-27T09:07:42Z</time>
      </trkpt>
      <trkpt lat="43.01364" lon="2.48312">
        <ele>365.8</ele>
        <time>2020-08-27T09:07:57Z</time>
      </trkpt>
      <trkpt lat="43.0127" lon="2.48231">
        <ele>349.1</ele>
        <time>2020-08-27T09:08:12Z</time>
      </trkpt>
      <trkpt lat="43.01298" lon="2.4808">
        <ele>338.6</ele>
        <time>2020-08-27T09:08:27Z</time>
      </trkpt>
      <trkpt lat="43.01218" lon="2.48181">
        <ele>328.5</ele>
        <time>2020-08-27T09:08:57Z</time>
      </trkpt>
      <trkpt lat="43.01165" lon="2.48326">
        <ele>325.6</ele>
        <time>2020-08-27T09:09:12Z</time>
      </trkpt>
      <trkpt lat="43.01133" lon="2.4845">
        <ele>321.7</ele>
        <time>2020-08-27T09:09:22Z</time>
      </trkpt>
      <trkpt lat="43.0113" lon="2.48576">
        <ele>317.2</ele>
        <time>2020-08-27T09:09:32Z</time>
      </trkpt>
      <trkpt lat="43.01161" lon="2.48694">
        <ele>310</ele>
        <time>2020-08-27T09:09:42Z</time>
      </trkpt>
      <trkpt lat="43.01172" lon="2.48873">
        <ele>297.4</ele>
        <time>2020-08-27T09:09:57Z</time>
      </trkpt>
      <trkpt lat="43.01162" lon="2.4901">
        <ele>289</ele>
        <time>2020-08-27T09:10:07Z</time>
      </trkpt>
      <trkpt lat="43.01133" lon="2.4913">
        <ele>284.3</ele>
        <time>2020-08-27T09:10:17Z</time>
      </trkpt>
      <trkpt lat="43.01119" lon="2.49277">
        <ele>280.3</ele>
        <time>2020-08-27T09:10:32Z</time>
      </trkpt>
      <trkpt lat="43.01136" lon="2.49401">
        <ele>277.4</ele>
        <time>2020-08-27T09:10:52Z</time>
      </trkpt>
      <trkpt lat="43.01147" lon="2.49539">
        <ele>274.6</ele>
        <time>2020-08-27T09:11:12Z</time>
      </trkpt>
      <trkpt lat="43.01108" lon="2.49674">
        <ele>272.3</ele>
        <time>2020-08-27T09:11:27Z</time>
      </trkpt>
      <trkpt lat="43.01056" lon="2.49808">
        <ele>269.4</ele>
        <time>2020-08-27T09:11:42Z</time>
      </trkpt>
      <trkpt lat="43.0101" lon="2.49916">
        <ele>263.2</ele>
        <time>2020-08-27T09:11:57Z</time>
      </trkpt>
      <trkpt lat="43.00955" lon="2.50039">
        <ele>263.1</ele>
        <time>2020-08-27T09:12:32Z</time>
      </trkpt>
      <trkpt lat="43.00869" lon="2.50126">
        <ele>256.7</ele>
        <time>2020-08-27T09:12:52Z</time>
      </trkpt>
      <trkpt lat="43.00852" lon="2.49988">
        <ele>253.3</ele>
        <time>2020-08-27T09:13:22Z</time>
      </trkpt>
      <trkpt lat="43.0082" lon="2.4986">
        <ele>252.2</ele>
        <time>2020-08-27T09:13:52Z</time>
      </trkpt>
      <trkpt lat="43.00755" lon="2.49766">
        <ele>251.2</ele>
        <time>2020-08-27T09:14:34Z</time>
      </trkpt>
      <trkpt lat="43.00695" lon="2.49661">
        <ele>250.5</ele>
        <time>2020-08-27T09:15:32Z</time>
      </trkpt>
      <trkpt lat="43.00624" lon="2.49561">
        <ele>252.1</ele>
        <time>2020-08-27T09:16:31Z</time>
      </trkpt>
      <trkpt lat="43.00564" lon="2.49466">
        <ele>254.3</ele>
        <time>2020-08-27T09:17:18Z</time>
      </trkpt>
      <trkpt lat="43.00483" lon="2.49382">
        <ele>256.4</ele>
        <time>2020-08-27T09:17:53Z</time>
      </trkpt>
      <trkpt lat="43.00385" lon="2.49348">
        <ele>258.2</ele>
        <time>2020-08-27T09:18:28Z</time>
      </trkpt>
      <trkpt lat="43.00337" lon="2.49232">
        <ele>261.1</ele>
        <time>2020-08-27T09:19:03Z</time>
      </trkpt>
      <trkpt lat="43.0029" lon="2.49119">
        <ele>261.3</ele>
        <time>2020-08-27T09:19:18Z</time>
      </trkpt>
      <trkpt lat="43.00231" lon="2.49016">
        <ele>261.3</ele>
        <time>2020-08-27T09:19:38Z</time>
      </trkpt>
      <trkpt lat="43.00152" lon="2.48946">
        <ele>262</ele>
        <time>2020-08-27T09:20:24Z</time>
      </trkpt>
      <trkpt lat="43.00119" lon="2.48824">
        <ele>263.2</ele>
        <time>2020-08-27T09:21:17Z</time>
      </trkpt>
      <trkpt lat="43.00065" lon="2.48719">
        <ele>264.2</ele>
        <time>2020-08-27T09:22:02Z</time>
      </trkpt>
      <trkpt lat="42.99994" lon="2.48632">
        <ele>265.8</ele>
        <time>2020-08-27T09:22:57Z</time>
      </trkpt>
      <trkpt lat="42.99902" lon="2.48585">
        <ele>268.7</ele>
        <time>2020-08-27T09:23:55Z</time>
      </trkpt>
      <trkpt lat="42.99806" lon="2.48578">
        <ele>282.9</ele>
        <time>2020-08-27T09:37:07Z</time>
      </trkpt>
      <trkpt lat="42.99739" lon="2.48484">
        <ele>286.6</ele>
        <time>2020-08-27T09:38:11Z</time>
      </trkpt>
      <trkpt lat="42.99646" lon="2.4849">
        <ele>288.2</ele>
        <time>2020-08-27T09:39:10Z</time>
      </trkpt>
      <trkpt lat="42.99575" lon="2.484">
        <ele>289.7</ele>
        <time>2020-08-27T09:40:06Z</time>
      </trkpt>
      <trkpt lat="42.99493" lon="2.48325">
        <ele>292.6</ele>
        <time>2020-08-27T09:41:09Z</time>
      </trkpt>
      <trkpt lat="42.99408" lon="2.48279">
        <ele>295.6</ele>
        <time>2020-08-27T09:42:06Z</time>
      </trkpt>
      <trkpt lat="42.99315" lon="2.483">
        <ele>298.1</ele>
        <time>2020-08-27T09:42:57Z</time>
      </trkpt>
      <trkpt lat="42.99257" lon="2.48186">
        <ele>299.9</ele>
        <time>2020-08-27T09:43:39Z</time>
      </trkpt>
      <trkpt lat="42.99223" lon="2.48058">
        <ele>301.6</ele>
        <time>2020-08-27T09:44:19Z</time>
      </trkpt>
      <trkpt lat="42.99183" lon="2.4794">
        <ele>303.2</ele>
        <time>2020-08-27T09:44:59Z</time>
      </trkpt>
      <trkpt lat="42.99127" lon="2.47837">
        <ele>304.5</ele>
        <time>2020-08-27T09:45:34Z</time>
      </trkpt>
      <trkpt lat="42.9905" lon="2.47754">
        <ele>305.9</ele>
        <time>2020-08-27T09:46:09Z</time>
      </trkpt>
      <trkpt lat="42.98974" lon="2.47685">
        <ele>307.2</ele>
        <time>2020-08-27T09:46:44Z</time>
      </trkpt>
      <trkpt lat="42.98922" lon="2.47555">
        <ele>310.2</ele>
        <time>2020-08-27T09:47:19Z</time>
      </trkpt>
      <trkpt lat="42.98887" lon="2.47427">
        <ele>311.3</ele>
        <time>2020-08-27T09:47:44Z</time>
      </trkpt>
      <trkpt lat="42.98803" lon="2.47482">
        <ele>312</ele>
        <time>2020-08-27T09:48:04Z</time>
      </trkpt>
      <trkpt lat="42.98704" lon="2.47471">
        <ele>312.6</ele>
        <time>2020-08-27T09:48:24Z</time>
      </trkpt>
      <trkpt lat="42.98587" lon="2.47454">
        <ele>313.2</ele>
        <time>2020-08-27T09:48:44Z</time>
      </trkpt>
      <trkpt lat="42.98499" lon="2.47355">
        <ele>314</ele>
        <time>2020-08-27T09:49:04Z</time>
      </trkpt>
      <trkpt lat="42.98413" lon="2.47313">
        <ele>317.7</ele>
        <time>2020-08-27T09:51:51Z</time>
      </trkpt>
      <trkpt lat="42.98302" lon="2.47278">
        <ele>319.1</ele>
        <time>2020-08-27T09:52:16Z</time>
      </trkpt>
      <trkpt lat="42.98206" lon="2.47344">
        <ele>319</ele>
        <time>2020-08-27T09:52:41Z</time>
      </trkpt>
      <trkpt lat="42.98125" lon="2.47415">
        <ele>318.7</ele>
        <time>2020-08-27T09:53:16Z</time>
      </trkpt>
      <trkpt lat="42.98154" lon="2.47555">
        <ele>318.8</ele>
        <time>2020-08-27T09:53:51Z</time>
      </trkpt>
      <trkpt lat="42.98055" lon="2.47551">
        <ele>318.9</ele>
        <time>2020-08-27T09:54:31Z</time>
      </trkpt>
      <trkpt lat="42.97963" lon="2.47508">
        <ele>319.3</ele>
        <time>2020-08-27T09:55:01Z</time>
      </trkpt>
      <trkpt lat="42.97872" lon="2.47545">
        <ele>321.2</ele>
        <time>2020-08-27T10:07:40Z</time>
      </trkpt>
      <trkpt lat="42.97772" lon="2.47562">
        <ele>321.8</ele>
        <time>2020-08-27T10:10:55Z</time>
      </trkpt>
      <trkpt lat="42.97672" lon="2.47556">
        <ele>322.3</ele>
        <time>2020-08-27T10:11:25Z</time>
      </trkpt>
      <trkpt lat="42.97625" lon="2.47665">
        <ele>323.1</ele>
        <time>2020-08-27T10:12:00Z</time>
      </trkpt>
      <trkpt lat="42.97535" lon="2.47622">
        <ele>325.5</ele>
        <time>2020-08-27T10:12:45Z</time>
      </trkpt>
      <trkpt lat="42.97442" lon="2.47596">
        <ele>328</ele>
        <time>2020-08-27T10:13:15Z</time>
      </trkpt>
      <trkpt lat="42.97372" lon="2.47697">
        <ele>330</ele>
        <time>2020-08-27T10:13:45Z</time>
      </trkpt>
      <trkpt lat="42.97332" lon="2.47813">
        <ele>330</ele>
        <time>2020-08-27T10:14:15Z</time>
      </trkpt>
      <trkpt lat="42.9733" lon="2.47945">
        <ele>330.1</ele>
        <time>2020-08-27T10:14:45Z</time>
      </trkpt>
      <trkpt lat="42.97326" lon="2.4808">
        <ele>330.4</ele>
        <time>2020-08-27T10:15:15Z</time>
      </trkpt>
      <trkpt lat="42.9726" lon="2.47982">
        <ele>331.4</ele>
        <time>2020-08-27T10:15:45Z</time>
      </trkpt>
      <trkpt lat="42.97166" lon="2.48022">
        <ele>332.4</ele>
        <time>2020-08-27T10:16:15Z</time>
      </trkpt>
      <trkpt lat="42.9713" lon="2.48135">
        <ele>332.9</ele>
        <time>2020-08-27T10:16:40Z</time>
      </trkpt>
      <trkpt lat="42.97083" lon="2.48244">
        <ele>334.2</ele>
        <time>2020-08-27T10:17:15Z</time>
      </trkpt>
      <trkpt lat="42.96991" lon="2.48235">
        <ele>335.4</ele>
        <time>2020-08-27T10:17:40Z</time>
      </trkpt>
      <trkpt lat="42.96897" lon="2.48237">
        <ele>335.7</ele>
        <time>2020-08-27T10:18:05Z</time>
      </trkpt>
      <trkpt lat="42.96817" lon="2.48292">
        <ele>335.9</ele>
        <time>2020-08-27T10:18:30Z</time>
      </trkpt>
      <trkpt lat="42.96732" lon="2.48347">
        <ele>336.5</ele>
        <time>2020-08-27T10:18:55Z</time>
      </trkpt>
      <trkpt lat="42.96652" lon="2.48411">
        <ele>337.4</ele>
        <time>2020-08-27T10:19:20Z</time>
      </trkpt>
      <trkpt lat="42.96567" lon="2.4846">
        <ele>338.9</ele>
        <time>2020-08-27T10:19:45Z</time>
      </trkpt>
      <trkpt lat="42.96488" lon="2.4852">
        <ele>339.4</ele>
        <time>2020-08-27T10:20:10Z</time>
      </trkpt>
      <trkpt lat="42.96491" lon="2.48648">
        <ele>340.5</ele>
        <time>2020-08-27T10:20:40Z</time>
      </trkpt>
      <trkpt lat="42.96501" lon="2.48776">
        <ele>341.1</ele>
        <time>2020-08-27T10:21:05Z</time>
      </trkpt>
      <trkpt lat="42.96483" lon="2.48912">
        <ele>341.5</ele>
        <time>2020-08-27T10:21:35Z</time>
      </trkpt>
      <trkpt lat="42.96438" lon="2.49035">
        <ele>342</ele>
        <time>2020-08-27T10:22:05Z</time>
      </trkpt>
      <trkpt lat="42.96405" lon="2.4915">
        <ele>342.5</ele>
        <time>2020-08-27T10:22:30Z</time>
      </trkpt>
      <trkpt lat="42.96415" lon="2.49278">
        <ele>343.2</ele>
        <time>2020-08-27T10:23:00Z</time>
      </trkpt>
      <trkpt lat="42.96394" lon="2.49399">
        <ele>344.1</ele>
        <time>2020-08-27T10:23:35Z</time>
      </trkpt>
      <trkpt lat="42.96341" lon="2.49506">
        <ele>346</ele>
        <time>2020-08-27T10:24:30Z</time>
      </trkpt>
      <trkpt lat="42.96257" lon="2.49428">
        <ele>348.2</ele>
        <time>2020-08-27T10:25:25Z</time>
      </trkpt>
      <trkpt lat="42.96186" lon="2.49346">
        <ele>349.4</ele>
        <time>2020-08-27T10:26:00Z</time>
      </trkpt>
      <trkpt lat="42.96089" lon="2.49293">
        <ele>350.3</ele>
        <time>2020-08-27T10:26:30Z</time>
      </trkpt>
      <trkpt lat="42.95994" lon="2.49279">
        <ele>351.7</ele>
        <time>2020-08-27T10:26:55Z</time>
      </trkpt>
      <trkpt lat="42.95897" lon="2.4932">
        <ele>353.3</ele>
        <time>2020-08-27T10:27:20Z</time>
      </trkpt>
      <trkpt lat="42.95826" lon="2.49421">
        <ele>354.1</ele>
        <time>2020-08-27T10:27:45Z</time>
      </trkpt>
      <trkpt lat="42.95754" lon="2.49496">
        <ele>354.7</ele>
        <time>2020-08-27T10:28:25Z</time>
      </trkpt>
      <trkpt lat="42.95669" lon="2.49551">
        <ele>355.6</ele>
        <time>2020-08-27T10:29:05Z</time>
      </trkpt>
      <trkpt lat="42.95571" lon="2.49526">
        <ele>357</ele>
        <time>2020-08-27T10:29:50Z</time>
      </trkpt>
      <trkpt lat="42.95486" lon="2.49478">
        <ele>363.7</ele>
        <time>2020-08-27T10:41:13Z</time>
      </trkpt>
      <trkpt lat="42.95404" lon="2.4954">
        <ele>364.6</ele>
        <time>2020-08-27T10:41:54Z</time>
      </trkpt>
      <trkpt lat="42.95411" lon="2.49664">
        <ele>365.1</ele>
        <time>2020-08-27T10:42:29Z</time>
      </trkpt>
      <trkpt lat="42.95328" lon="2.49726">
        <ele>365.6</ele>
        <time>2020-08-27T10:43:34Z</time>
      </trkpt>
      <trkpt lat="42.95254" lon="2.49651">
        <ele>366</ele>
        <time>2020-08-27T10:44:09Z</time>
      </trkpt>
      <trkpt lat="42.95155" lon="2.49638">
        <ele>366.4</ele>
        <time>2020-08-27T10:44:44Z</time>
      </trkpt>
      <trkpt lat="42.95068" lon="2.49709">
        <ele>366.8</ele>
        <time>2020-08-27T10:45:19Z</time>
      </trkpt>
      <trkpt lat="42.94978" lon="2.49724">
        <ele>367.1</ele>
        <time>2020-08-27T10:45:49Z</time>
      </trkpt>
      <trkpt lat="42.94875" lon="2.49747">
        <ele>367.6</ele>
        <time>2020-08-27T10:46:24Z</time>
      </trkpt>
      <trkpt lat="42.94801" lon="2.49816">
        <ele>367.9</ele>
        <time>2020-08-27T10:46:54Z</time>
      </trkpt>
      <trkpt lat="42.94723" lon="2.49751">
        <ele>368.3</ele>
        <time>2020-08-27T10:47:24Z</time>
      </trkpt>
      <trkpt lat="42.94648" lon="2.49661">
        <ele>368.8</ele>
        <time>2020-08-27T10:48:09Z</time>
      </trkpt>
      <trkpt lat="42.94633" lon="2.49534">
        <ele>369.5</ele>
        <time>2020-08-27T10:48:34Z</time>
      </trkpt>
      <trkpt lat="42.94563" lon="2.49427">
        <ele>369.7</ele>
        <time>2020-08-27T10:49:04Z</time>
      </trkpt>
      <trkpt lat="42.94501" lon="2.49333">
        <ele>370</ele>
        <time>2020-08-27T10:49:35Z</time>
      </trkpt>
      <trkpt lat="42.9441" lon="2.49267">
        <ele>371.4</ele>
        <time>2020-08-27T10:50:05Z</time>
      </trkpt>
      <trkpt lat="42.94318" lon="2.49246">
        <ele>372.9</ele>
        <time>2020-08-27T10:50:35Z</time>
      </trkpt>
      <trkpt lat="42.9424" lon="2.49313">
        <ele>375.5</ele>
        <time>2020-08-27T10:51:00Z</time>
      </trkpt>
      <trkpt lat="42.94167" lon="2.49397">
        <ele>377.5</ele>
        <time>2020-08-27T10:51:30Z</time>
      </trkpt>
      <trkpt lat="42.94094" lon="2.49472">
        <ele>379.8</ele>
        <time>2020-08-27T10:52:00Z</time>
      </trkpt>
      <trkpt lat="42.94006" lon="2.49386">
        <ele>384</ele>
        <time>2020-08-27T10:52:30Z</time>
      </trkpt>
      <trkpt lat="42.93925" lon="2.49305">
        <ele>386.5</ele>
        <time>2020-08-27T10:52:55Z</time>
      </trkpt>
      <trkpt lat="42.93833" lon="2.49252">
        <ele>387.9</ele>
        <time>2020-08-27T10:53:20Z</time>
      </trkpt>
      <trkpt lat="42.93757" lon="2.49158">
        <ele>388.9</ele>
        <time>2020-08-27T10:53:45Z</time>
      </trkpt>
      <trkpt lat="42.93704" lon="2.49047">
        <ele>389.9</ele>
        <time>2020-08-27T10:54:10Z</time>
      </trkpt>
      <trkpt lat="42.93647" lon="2.48924">
        <ele>390.3</ele>
        <time>2020-08-27T10:54:40Z</time>
      </trkpt>
      <trkpt lat="42.93591" lon="2.4881">
        <ele>391.2</ele>
        <time>2020-08-27T10:55:10Z</time>
      </trkpt>
      <trkpt lat="42.93503" lon="2.48752">
        <ele>392.6</ele>
        <time>2020-08-27T10:55:40Z</time>
      </trkpt>
      <trkpt lat="42.93399" lon="2.48734">
        <ele>393.8</ele>
        <time>2020-08-27T10:56:09Z</time>
      </trkpt>
      <trkpt lat="42.93314" lon="2.48685">
        <ele>395.1</ele>
        <time>2020-08-27T10:56:39Z</time>
      </trkpt>
      <trkpt lat="42.93219" lon="2.48625">
        <ele>397.4</ele>
        <time>2020-08-27T10:57:09Z</time>
      </trkpt>
      <trkpt lat="42.93113" lon="2.48611">
        <ele>398.1</ele>
        <time>2020-08-27T10:57:39Z</time>
      </trkpt>
      <trkpt lat="42.93018" lon="2.48583">
        <ele>399.9</ele>
        <time>2020-08-27T10:58:04Z</time>
      </trkpt>
      <trkpt lat="42.92957" lon="2.48465">
        <ele>400.8</ele>
        <time>2020-08-27T10:58:34Z</time>
      </trkpt>
      <trkpt lat="42.9288" lon="2.48388">
        <ele>401.5</ele>
        <time>2020-08-27T10:59:04Z</time>
      </trkpt>
      <trkpt lat="42.92813" lon="2.48281">
        <ele>403</ele>
        <time>2020-08-27T10:59:44Z</time>
      </trkpt>
      <trkpt lat="42.92752" lon="2.48177">
        <ele>404.9</ele>
        <time>2020-08-27T11:00:24Z</time>
      </trkpt>
      <trkpt lat="42.92724" lon="2.48059">
        <ele>406.5</ele>
        <time>2020-08-27T11:00:59Z</time>
      </trkpt>
      <trkpt lat="42.92669" lon="2.47953">
        <ele>407.9</ele>
        <time>2020-08-27T11:01:29Z</time>
      </trkpt>
      <trkpt lat="42.9261" lon="2.4784">
        <ele>409.1</ele>
        <time>2020-08-27T11:01:59Z</time>
      </trkpt>
      <trkpt lat="42.92528" lon="2.47768">
        <ele>410.9</ele>
        <time>2020-08-27T11:02:34Z</time>
      </trkpt>
      <trkpt lat="42.9244" lon="2.47805">
        <ele>412.1</ele>
        <time>2020-08-27T11:03:09Z</time>
      </trkpt>
      <trkpt lat="42.92345" lon="2.47781">
        <ele>413.7</ele>
        <time>2020-08-27T11:04:01Z</time>
      </trkpt>
      <trkpt lat="42.92246" lon="2.47769">
        <ele>415.2</ele>
        <time>2020-08-27T11:04:54Z</time>
      </trkpt>
      <trkpt lat="42.92156" lon="2.47764">
        <ele>430.8</ele>
        <time>2020-08-27T11:36:18Z</time>
      </trkpt>
      <trkpt lat="42.92227" lon="2.47852">
        <ele>432.2</ele>
        <time>2020-08-27T11:39:20Z</time>
      </trkpt>
      <trkpt lat="42.92303" lon="2.47928">
        <ele>433.8</ele>
        <time>2020-08-27T11:40:28Z</time>
      </trkpt>
      <trkpt lat="42.92392" lon="2.4797">
        <ele>435.4</ele>
        <time>2020-08-27T11:41:30Z</time>
      </trkpt>
      <trkpt lat="42.92467" lon="2.48043">
        <ele>437.6</ele>
        <time>2020-08-27T11:42:45Z</time>
      </trkpt>
      <trkpt lat="42.92535" lon="2.48151">
        <ele>439.4</ele>
        <time>2020-08-27T11:43:51Z</time>
      </trkpt>
      <trkpt lat="42.92535" lon="2.48285">
        <ele>442.1</ele>
        <time>2020-08-27T11:44:57Z</time>
      </trkpt>
      <trkpt lat="42.92589" lon="2.48387">
        <ele>447.7</ele>
        <time>2020-08-27T11:46:01Z</time>
      </trkpt>
      <trkpt lat="42.92647" lon="2.48492">
        <ele>455.4</ele>
        <time>2020-08-27T11:46:59Z</time>
      </trkpt>
      <trkpt lat="42.92691" lon="2.48609">
        <ele>461.6</ele>
        <time>2020-08-27T11:47:48Z</time>
      </trkpt>
      <trkpt lat="42.9273" lon="2.48723">
        <ele>466.6</ele>
        <time>2020-08-27T11:48:36Z</time>
      </trkpt>
      <trkpt lat="42.92803" lon="2.48798">
        <ele>470.3</ele>
        <time>2020-08-27T11:49:23Z</time>
      </trkpt>
      <trkpt lat="42.92871" lon="2.48892">
        <ele>475</ele>
        <time>2020-08-27T11:50:13Z</time>
      </trkpt>
      <trkpt lat="42.92951" lon="2.48964">
        <ele>480.3</ele>
        <time>2020-08-27T11:51:03Z</time>
      </trkpt>
      <trkpt lat="42.93045" lon="2.49">
        <ele>485.4</ele>
        <time>2020-08-27T11:51:58Z</time>
      </trkpt>
      <trkpt lat="42.9314" lon="2.4899">
        <ele>489.7</ele>
        <time>2020-08-27T11:52:57Z</time>
      </trkpt>
      <trkpt lat="42.93232" lon="2.49024">
        <ele>493.5</ele>
        <time>2020-08-27T11:54:00Z</time>
      </trkpt>
      <trkpt lat="42.93212" lon="2.49145">
        <ele>501</ele>
        <time>2020-08-27T11:55:40Z</time>
      </trkpt>
      <trkpt lat="42.93161" lon="2.49248">
        <ele>505.9</ele>
        <time>2020-08-27T11:57:47Z</time>
      </trkpt>
      <trkpt lat="42.93064" lon="2.49267">
        <ele>531</ele>
        <time>2020-08-27T12:22:19Z</time>
      </trkpt>
      <trkpt lat="42.9299" lon="2.49404">
        <ele>529.9</ele>
        <time>2020-08-27T12:22:34Z</time>
      </trkpt>
      <trkpt lat="42.92908" lon="2.49507">
        <ele>527.9</ele>
        <time>2020-08-27T12:22:49Z</time>
      </trkpt>
      <trkpt lat="42.92817" lon="2.49474">
        <ele>525.3</ele>
        <time>2020-08-27T12:22:59Z</time>
      </trkpt>
      <trkpt lat="42.92731" lon="2.49343">
        <ele>520.8</ele>
        <time>2020-08-27T12:23:14Z</time>
      </trkpt>
      <trkpt lat="42.92631" lon="2.49265">
        <ele>517.8</ele>
        <time>2020-08-27T12:23:29Z</time>
      </trkpt>
      <trkpt lat="42.92537" lon="2.49257">
        <ele>516.2</ele>
        <time>2020-08-27T12:23:49Z</time>
      </trkpt>
      <trkpt lat="42.92444" lon="2.49234">
        <ele>515.7</ele>
        <time>2020-08-27T12:24:19Z</time>
      </trkpt>
      <trkpt lat="42.92468" lon="2.49355">
        <ele>512.9</ele>
        <time>2020-08-27T12:25:58Z</time>
      </trkpt>
      <trkpt lat="42.92472" lon="2.49488">
        <ele>513.8</ele>
        <time>2020-08-27T12:27:10Z</time>
      </trkpt>
      <trkpt lat="42.92475" lon="2.49618">
        <ele>517.7</ele>
        <time>2020-08-27T12:28:12Z</time>
      </trkpt>
      <trkpt lat="42.92453" lon="2.49737">
        <ele>521.9</ele>
        <time>2020-08-27T12:29:17Z</time>
      </trkpt>
      <trkpt lat="42.92367" lon="2.49788">
        <ele>523.3</ele>
        <time>2020-08-27T12:30:18Z</time>
      </trkpt>
      <trkpt lat="42.92307" lon="2.49883">
        <ele>525</ele>
        <time>2020-08-27T12:31:24Z</time>
      </trkpt>
      <trkpt lat="42.92288" lon="2.50005">
        <ele>526.7</ele>
        <time>2020-08-27T12:32:27Z</time>
      </trkpt>
      <trkpt lat="42.92209" lon="2.50068">
        <ele>528.5</ele>
        <time>2020-08-27T12:33:28Z</time>
      </trkpt>
      <trkpt lat="42.92219" lon="2.50197">
        <ele>530.5</ele>
        <time>2020-08-27T12:34:30Z</time>
      </trkpt>
      <trkpt lat="42.92209" lon="2.50329">
        <ele>532.4</ele>
        <time>2020-08-27T12:35:31Z</time>
      </trkpt>
      <trkpt lat="42.92152" lon="2.50432">
        <ele>534.4</ele>
        <time>2020-08-27T12:36:32Z</time>
      </trkpt>
      <trkpt lat="42.92083" lon="2.5052">
        <ele>537.1</ele>
        <time>2020-08-27T12:37:40Z</time>
      </trkpt>
      <trkpt lat="42.91985" lon="2.50532">
        <ele>540.9</ele>
        <time>2020-08-27T12:38:38Z</time>
      </trkpt>
      <trkpt lat="42.91893" lon="2.50482">
        <ele>547.6</ele>
        <time>2020-08-27T12:39:40Z</time>
      </trkpt>
      <trkpt lat="42.91802" lon="2.50429">
        <ele>553.2</ele>
        <time>2020-08-27T12:40:40Z</time>
      </trkpt>
      <trkpt lat="42.91717" lon="2.5037">
        <ele>558.2</ele>
        <time>2020-08-27T12:41:40Z</time>
      </trkpt>
      <trkpt lat="42.91644" lon="2.50451">
        <ele>575.4</ele>
        <time>2020-08-27T12:43:41Z</time>
      </trkpt>
      <trkpt lat="42.91599" lon="2.5056">
        <ele>590</ele>
        <time>2020-08-27T12:44:48Z</time>
      </trkpt>
      <trkpt lat="42.91508" lon="2.50608">
        <ele>599.5</ele>
        <time>2020-08-27T12:45:52Z</time>
      </trkpt>
      <trkpt lat="42.9142" lon="2.50646">
        <ele>607.4</ele>
        <time>2020-08-27T12:47:06Z</time>
      </trkpt>
      <trkpt lat="42.91327" lon="2.50684">
        <ele>618.5</ele>
        <time>2020-08-27T12:48:33Z</time>
      </trkpt>
      <trkpt lat="42.91232" lon="2.50659">
        <ele>625</ele>
        <time>2020-08-27T12:49:39Z</time>
      </trkpt>
      <trkpt lat="42.91151" lon="2.50728">
        <ele>636</ele>
        <time>2020-08-27T12:52:57Z</time>
      </trkpt>
      <trkpt lat="42.91097" lon="2.50827">
        <ele>644</ele>
        <time>2020-08-27T12:54:16Z</time>
      </trkpt>
      <trkpt lat="42.91014" lon="2.50897">
        <ele>648.1</ele>
        <time>2020-08-27T12:55:21Z</time>
      </trkpt>
      <trkpt lat="42.90934" lon="2.50951">
        <ele>654.8</ele>
        <time>2020-08-27T12:56:23Z</time>
      </trkpt>
      <trkpt lat="42.90897" lon="2.50825">
        <ele>670.3</ele>
        <time>2020-08-27T12:57:49Z</time>
      </trkpt>
      <trkpt lat="42.90809" lon="2.50778">
        <ele>677</ele>
        <time>2020-08-27T12:58:50Z</time>
      </trkpt>
      <trkpt lat="42.90758" lon="2.50882">
        <ele>685.3</ele>
        <time>2020-08-27T13:10:44Z</time>
      </trkpt>
      <trkpt lat="42.90691" lon="2.50732">
        <ele>683.9</ele>
        <time>2020-08-27T13:11:14Z</time>
      </trkpt>
      <trkpt lat="42.9061" lon="2.50584">
        <ele>682.5</ele>
        <time>2020-08-27T13:11:29Z</time>
      </trkpt>
      <trkpt lat="42.90518" lon="2.50596">
        <ele>680.8</ele>
        <time>2020-08-27T13:11:39Z</time>
      </trkpt>
      <trkpt lat="42.90444" lon="2.50692">
        <ele>679</ele>
        <time>2020-08-27T13:11:49Z</time>
      </trkpt>
      <trkpt lat="42.90371" lon="2.50793">
        <ele>675.6</ele>
        <time>2020-08-27T13:11:59Z</time>
      </trkpt>
      <trkpt lat="42.90277" lon="2.50839">
        <ele>669.6</ele>
        <time>2020-08-27T13:12:09Z</time>
      </trkpt>
      <trkpt lat="42.90221" lon="2.5101">
        <ele>655.6</ele>
        <time>2020-08-27T13:12:24Z</time>
      </trkpt>
      <trkpt lat="42.90111" lon="2.51078">
        <ele>649.1</ele>
        <time>2020-08-27T13:12:34Z</time>
      </trkpt>
      <trkpt lat="42.8998" lon="2.51131">
        <ele>632.1</ele>
        <time>2020-08-27T13:12:44Z</time>
      </trkpt>
      <trkpt lat="42.8987" lon="2.51174">
        <ele>622</ele>
        <time>2020-08-27T13:12:54Z</time>
      </trkpt>
      <trkpt lat="42.89751" lon="2.51258">
        <ele>609.6</ele>
        <time>2020-08-27T13:13:09Z</time>
      </trkpt>
      <trkpt lat="42.89642" lon="2.513">
        <ele>597.8</ele>
        <time>2020-08-27T13:13:19Z</time>
      </trkpt>
      <trkpt lat="42.89529" lon="2.51325">
        <ele>590.9</ele>
        <time>2020-08-27T13:13:29Z</time>
      </trkpt>
      <trkpt lat="42.89436" lon="2.51414">
        <ele>576.1</ele>
        <time>2020-08-27T13:13:39Z</time>
      </trkpt>
      <trkpt lat="42.89348" lon="2.51303">
        <ele>561.2</ele>
        <time>2020-08-27T13:13:54Z</time>
      </trkpt>
      <trkpt lat="42.89375" lon="2.51172">
        <ele>559.8</ele>
        <time>2020-08-27T13:14:04Z</time>
      </trkpt>
      <trkpt lat="42.89354" lon="2.51009">
        <ele>551.5</ele>
        <time>2020-08-27T13:14:24Z</time>
      </trkpt>
      <trkpt lat="42.89327" lon="2.5113">
        <ele>526.8</ele>
        <time>2020-08-27T13:14:54Z</time>
      </trkpt>
      <trkpt lat="42.89239" lon="2.5126">
        <ele>520.3</ele>
        <time>2020-08-27T13:15:09Z</time>
      </trkpt>
      <trkpt lat="42.89172" lon="2.51365">
        <ele>514.8</ele>
        <time>2020-08-27T13:15:19Z</time>
      </trkpt>
      <trkpt lat="42.89125" lon="2.51487">
        <ele>508.7</ele>
        <time>2020-08-27T13:15:29Z</time>
      </trkpt>
      <trkpt lat="42.89042" lon="2.51563">
        <ele>502.9</ele>
        <time>2020-08-27T13:15:39Z</time>
      </trkpt>
      <trkpt lat="42.88922" lon="2.51549">
        <ele>490.1</ele>
        <time>2020-08-27T13:15:54Z</time>
      </trkpt>
      <trkpt lat="42.88815" lon="2.51648">
        <ele>481.4</ele>
        <time>2020-08-27T13:16:09Z</time>
      </trkpt>
      <trkpt lat="42.8874" lon="2.51714">
        <ele>477.3</ele>
        <time>2020-08-27T13:16:47Z</time>
      </trkpt>
      <trkpt lat="42.88652" lon="2.51769">
        <ele>459.6</ele>
        <time>2020-08-27T13:17:17Z</time>
      </trkpt>
      <trkpt lat="42.88563" lon="2.51802">
        <ele>454.3</ele>
        <time>2020-08-27T13:17:37Z</time>
      </trkpt>
      <trkpt lat="42.88473" lon="2.51843">
        <ele>451.4</ele>
        <time>2020-08-27T13:17:57Z</time>
      </trkpt>
      <trkpt lat="42.88372" lon="2.51889">
        <ele>448.8</ele>
        <time>2020-08-27T13:18:17Z</time>
      </trkpt>
      <trkpt lat="42.88278" lon="2.51796">
        <ele>444.1</ele>
        <time>2020-08-27T13:18:37Z</time>
      </trkpt>
      <trkpt lat="42.88213" lon="2.51673">
        <ele>439.4</ele>
        <time>2020-08-27T13:18:57Z</time>
      </trkpt>
      <trkpt lat="42.8816" lon="2.51564">
        <ele>436.5</ele>
        <time>2020-08-27T13:19:17Z</time>
      </trkpt>
      <trkpt lat="42.88126" lon="2.51436">
        <ele>435.5</ele>
        <time>2020-08-27T13:19:37Z</time>
      </trkpt>
      <trkpt lat="42.88074" lon="2.51323">
        <ele>433.1</ele>
        <time>2020-08-27T13:19:57Z</time>
      </trkpt>
      <trkpt lat="42.8803" lon="2.51212">
        <ele>431.9</ele>
        <time>2020-08-27T13:20:22Z</time>
      </trkpt>
      <trkpt lat="42.88017" lon="2.51086">
        <ele>426.1</ele>
        <time>2020-08-27T13:20:42Z</time>
      </trkpt>
      <trkpt lat="42.88092" lon="2.5101">
        <ele>419.5</ele>
        <time>2020-08-27T13:21:02Z</time>
      </trkpt>
      <trkpt lat="42.88101" lon="2.50868">
        <ele>415.5</ele>
        <time>2020-08-27T13:21:32Z</time>
      </trkpt>
      <trkpt lat="42.88043" lon="2.5077">
        <ele>413.2</ele>
        <time>2020-08-27T13:21:47Z</time>
      </trkpt>
      <trkpt lat="42.87955" lon="2.50657">
        <ele>410.2</ele>
        <time>2020-08-27T13:22:06Z</time>
      </trkpt>
      <trkpt lat="42.87918" lon="2.50535">
        <ele>408</ele>
        <time>2020-08-27T13:22:36Z</time>
      </trkpt>
      <trkpt lat="42.87858" lon="2.5044">
        <ele>401.2</ele>
        <time>2020-08-27T13:23:18Z</time>
      </trkpt>
      <trkpt lat="42.87864" lon="2.50307">
        <ele>401.4</ele>
        <time>2020-08-27T13:24:14Z</time>
      </trkpt>
      <trkpt lat="42.87875" lon="2.50435">
        <ele>400.8</ele>
        <time>2020-08-27T13:25:01Z</time>
      </trkpt>
      <trkpt lat="42.87864" lon="2.50297">
        <ele>395.2</ele>
        <time>2020-08-27T13:45:05Z</time>
      </trkpt>
      <trkpt lat="42.87845" lon="2.50175">
        <ele>395.6</ele>
        <time>2020-08-27T13:45:45Z</time>
      </trkpt>
      <trkpt lat="42.87827" lon="2.50046">
        <ele>396.2</ele>
        <time>2020-08-27T13:46:29Z</time>
      </trkpt>
      <trkpt lat="42.87818" lon="2.4991">
        <ele>396.8</ele>
        <time>2020-08-27T13:47:14Z</time>
      </trkpt>
      <trkpt lat="42.87755" lon="2.49799">
        <ele>397.6</ele>
        <time>2020-08-27T13:47:59Z</time>
      </trkpt>
      <trkpt lat="42.87701" lon="2.4968">
        <ele>398.4</ele>
        <time>2020-08-27T13:48:39Z</time>
      </trkpt>
      <trkpt lat="42.87624" lon="2.49597">
        <ele>399.2</ele>
        <time>2020-08-27T13:49:19Z</time>
      </trkpt>
      <trkpt lat="42.87543" lon="2.4954">
        <ele>400.1</ele>
        <time>2020-08-27T13:49:59Z</time>
      </trkpt>
      <trkpt lat="42.87553" lon="2.49412">
        <ele>401</ele>
        <time>2020-08-27T13:50:34Z</time>
      </trkpt>
      <trkpt lat="42.8755" lon="2.49276">
        <ele>401.9</ele>
        <time>2020-08-27T13:51:09Z</time>
      </trkpt>
      <trkpt lat="42.87468" lon="2.49199">
        <ele>403.6</ele>
        <time>2020-08-27T13:51:39Z</time>
      </trkpt>
      <trkpt lat="42.87432" lon="2.49082">
        <ele>404.9</ele>
        <time>2020-08-27T13:52:04Z</time>
      </trkpt>
      <trkpt lat="42.87374" lon="2.48963">
        <ele>405.7</ele>
        <time>2020-08-27T13:52:29Z</time>
      </trkpt>
      <trkpt lat="42.87326" lon="2.48824">
        <ele>406.6</ele>
        <time>2020-08-27T13:52:54Z</time>
      </trkpt>
      <trkpt lat="42.87312" lon="2.48685">
        <ele>407.4</ele>
        <time>2020-08-27T13:53:14Z</time>
      </trkpt>
      <trkpt lat="42.8723" lon="2.48586">
        <ele>407.9</ele>
        <time>2020-08-27T13:53:34Z</time>
      </trkpt>
      <trkpt lat="42.87131" lon="2.48624">
        <ele>408.3</ele>
        <time>2020-08-27T13:53:54Z</time>
      </trkpt>
      <trkpt lat="42.87039" lon="2.4854">
        <ele>408.8</ele>
        <time>2020-08-27T13:54:19Z</time>
      </trkpt>
      <trkpt lat="42.86949" lon="2.48476">
        <ele>409.5</ele>
        <time>2020-08-27T13:54:49Z</time>
      </trkpt>
      <trkpt lat="42.86854" lon="2.48459">
        <ele>410.9</ele>
        <time>2020-08-27T13:57:15Z</time>
      </trkpt>
      <trkpt lat="42.86813" lon="2.48338">
        <ele>412.5</ele>
        <time>2020-08-27T13:57:50Z</time>
      </trkpt>
      <trkpt lat="42.86823" lon="2.482">
        <ele>414.2</ele>
        <time>2020-08-27T13:58:30Z</time>
      </trkpt>
      <trkpt lat="42.86776" lon="2.48093">
        <ele>415.4</ele>
        <time>2020-08-27T13:59:05Z</time>
      </trkpt>
      <trkpt lat="42.86814" lon="2.47973">
        <ele>417.1</ele>
        <time>2020-08-27T13:59:45Z</time>
      </trkpt>
      <trkpt lat="42.86885" lon="2.47893">
        <ele>418.5</ele>
        <time>2020-08-27T14:00:20Z</time>
      </trkpt>
      <trkpt lat="42.86972" lon="2.47831">
        <ele>420.3</ele>
        <time>2020-08-27T14:01:00Z</time>
      </trkpt>
      <trkpt lat="42.86974" lon="2.47707">
        <ele>423</ele>
        <time>2020-08-27T14:01:55Z</time>
      </trkpt>
      <trkpt lat="42.86973" lon="2.47576">
        <ele>424.9</ele>
        <time>2020-08-27T14:02:35Z</time>
      </trkpt>
      <trkpt lat="42.86924" lon="2.47465">
        <ele>426.8</ele>
        <time>2020-08-27T14:03:15Z</time>
      </trkpt>
      <trkpt lat="42.86869" lon="2.4736">
        <ele>428.8</ele>
        <time>2020-08-27T14:03:55Z</time>
      </trkpt>
      <trkpt lat="42.86813" lon="2.47245">
        <ele>431</ele>
        <time>2020-08-27T14:04:40Z</time>
      </trkpt>
      <trkpt lat="42.8678" lon="2.47123">
        <ele>433.2</ele>
        <time>2020-08-27T14:05:25Z</time>
      </trkpt>
      <trkpt lat="42.86738" lon="2.4699">
        <ele>435.5</ele>
        <time>2020-08-27T14:06:10Z</time>
      </trkpt>
      <trkpt lat="42.86713" lon="2.46866">
        <ele>437.8</ele>
        <time>2020-08-27T14:06:55Z</time>
      </trkpt>
      <trkpt lat="42.86754" lon="2.46745">
        <ele>440.6</ele>
        <time>2020-08-27T14:07:49Z</time>
      </trkpt>
      <trkpt lat="42.86785" lon="2.46627">
        <ele>443.9</ele>
        <time>2020-08-27T14:08:38Z</time>
      </trkpt>
      <trkpt lat="42.86754" lon="2.46507">
        <ele>452.4</ele>
        <time>2020-08-27T14:09:33Z</time>
      </trkpt>
      <trkpt lat="42.86705" lon="2.46401">
        <ele>460.3</ele>
        <time>2020-08-27T14:10:19Z</time>
      </trkpt>
      <trkpt lat="42.86649" lon="2.46291">
        <ele>467.6</ele>
        <time>2020-08-27T14:11:09Z</time>
      </trkpt>
      <trkpt lat="42.86684" lon="2.46167">
        <ele>475.1</ele>
        <time>2020-08-27T14:11:56Z</time>
      </trkpt>
      <trkpt lat="42.86638" lon="2.46056">
        <ele>478.8</ele>
        <time>2020-08-27T14:12:11Z</time>
      </trkpt>
      <trkpt lat="42.86516" lon="2.46027">
        <ele>477.9</ele>
        <time>2020-08-27T14:12:26Z</time>
      </trkpt>
      <trkpt lat="42.86423" lon="2.46063">
        <ele>477.1</ele>
        <time>2020-08-27T14:12:36Z</time>
      </trkpt>
      <trkpt lat="42.86325" lon="2.46175">
        <ele>475.1</ele>
        <time>2020-08-27T14:12:51Z</time>
      </trkpt>
      <trkpt lat="42.86226" lon="2.46194">
        <ele>471.3</ele>
        <time>2020-08-27T14:13:06Z</time>
      </trkpt>
      <trkpt lat="42.86202" lon="2.46029">
        <ele>469</ele>
        <time>2020-08-27T14:13:21Z</time>
      </trkpt>
      <trkpt lat="42.86084" lon="2.46014">
        <ele>459.4</ele>
        <time>2020-08-27T14:14:01Z</time>
      </trkpt>
      <trkpt lat="42.85985" lon="2.46061">
        <ele>454.6</ele>
        <time>2020-08-27T14:14:21Z</time>
      </trkpt>
      <trkpt lat="42.85878" lon="2.46131">
        <ele>450.9</ele>
        <time>2020-08-27T14:14:41Z</time>
      </trkpt>
      <trkpt lat="42.85791" lon="2.46188">
        <ele>448.1</ele>
        <time>2020-08-27T14:14:56Z</time>
      </trkpt>
      <trkpt lat="42.85699" lon="2.46244">
        <ele>443.5</ele>
        <time>2020-08-27T14:15:11Z</time>
      </trkpt>
      <trkpt lat="42.85641" lon="2.46356">
        <ele>441.8</ele>
        <time>2020-08-27T14:15:26Z</time>
      </trkpt>
      <trkpt lat="42.85582" lon="2.46456">
        <ele>439.2</ele>
        <time>2020-08-27T14:15:41Z</time>
      </trkpt>
      <trkpt lat="42.8549" lon="2.46506">
        <ele>435.9</ele>
        <time>2020-08-27T14:15:56Z</time>
      </trkpt>
      <trkpt lat="42.85417" lon="2.46597">
        <ele>432.2</ele>
        <time>2020-08-27T14:16:11Z</time>
      </trkpt>
      <trkpt lat="42.85335" lon="2.46646">
        <ele>430.5</ele>
        <time>2020-08-27T14:16:26Z</time>
      </trkpt>
      <trkpt lat="42.8529" lon="2.46751">
        <ele>428.1</ele>
        <time>2020-08-27T14:16:41Z</time>
      </trkpt>
      <trkpt lat="42.85264" lon="2.46877">
        <ele>425.2</ele>
        <time>2020-08-27T14:16:56Z</time>
      </trkpt>
      <trkpt lat="42.85243" lon="2.47006">
        <ele>423.5</ele>
        <time>2020-08-27T14:17:11Z</time>
      </trkpt>
      <trkpt lat="42.85142" lon="2.47042">
        <ele>418.7</ele>
        <time>2020-08-27T14:17:31Z</time>
      </trkpt>
      <trkpt lat="42.85045" lon="2.47022">
        <ele>415.4</ele>
        <time>2020-08-27T14:17:51Z</time>
      </trkpt>
      <trkpt lat="42.84967" lon="2.47086">
        <ele>411.7</ele>
        <time>2020-08-27T14:18:06Z</time>
      </trkpt>
      <trkpt lat="42.84858" lon="2.47111">
        <ele>411</ele>
        <time>2020-08-27T14:18:26Z</time>
      </trkpt>
      <trkpt lat="42.84803" lon="2.46983">
        <ele>411.9</ele>
        <time>2020-08-27T14:18:46Z</time>
      </trkpt>
      <trkpt lat="42.84788" lon="2.46855">
        <ele>410.6</ele>
        <time>2020-08-27T14:19:01Z</time>
      </trkpt>
      <trkpt lat="42.84699" lon="2.46914">
        <ele>403.9</ele>
        <time>2020-08-27T14:19:26Z</time>
      </trkpt>
      <trkpt lat="42.84616" lon="2.47027">
        <ele>396</ele>
        <time>2020-08-27T14:19:46Z</time>
      </trkpt>
      <trkpt lat="42.84621" lon="2.47158">
        <ele>395.8</ele>
        <time>2020-08-27T14:20:01Z</time>
      </trkpt>
      <trkpt lat="42.84671" lon="2.47266">
        <ele>396.6</ele>
        <time>2020-08-27T14:20:16Z</time>
      </trkpt>
      <trkpt lat="42.84681" lon="2.47402">
        <ele>393.9</ele>
        <time>2020-08-27T14:20:36Z</time>
      </trkpt>
      <trkpt lat="42.84648" lon="2.47527">
        <ele>386.8</ele>
        <time>2020-08-27T14:26:14Z</time>
      </trkpt>
      <trkpt lat="42.84628" lon="2.47665">
        <ele>385.7</ele>
        <time>2020-08-27T14:28:22Z</time>
      </trkpt>
      <trkpt lat="42.84578" lon="2.47784">
        <ele>385.8</ele>
        <time>2020-08-27T14:28:42Z</time>
      </trkpt>
      <trkpt lat="42.84499" lon="2.47854">
        <ele>385.6</ele>
        <time>2020-08-27T14:29:12Z</time>
      </trkpt>
      <trkpt lat="42.84397" lon="2.47893">
        <ele>385.1</ele>
        <time>2020-08-27T14:29:47Z</time>
      </trkpt>
      <trkpt lat="42.84333" lon="2.47989">
        <ele>384.7</ele>
        <time>2020-08-27T14:30:23Z</time>
      </trkpt>
      <trkpt lat="42.84236" lon="2.47988">
        <ele>385.2</ele>
        <time>2020-08-27T14:32:59Z</time>
      </trkpt>
      <trkpt lat="42.84143" lon="2.47975">
        <ele>385.4</ele>
        <time>2020-08-27T14:33:39Z</time>
      </trkpt>
      <trkpt lat="42.84059" lon="2.47913">
        <ele>388.7</ele>
        <time>2020-08-27T14:34:21Z</time>
      </trkpt>
      <trkpt lat="42.83961" lon="2.47963">
        <ele>395.6</ele>
        <time>2020-08-27T14:34:56Z</time>
      </trkpt>
      <trkpt lat="42.8386" lon="2.47975">
        <ele>393.8</ele>
        <time>2020-08-27T14:35:30Z</time>
      </trkpt>
      <trkpt lat="42.83841" lon="2.48105">
        <ele>393.8</ele>
        <time>2020-08-27T14:36:42Z</time>
      </trkpt>
      <trkpt lat="42.83746" lon="2.48197">
        <ele>397.6</ele>
        <time>2020-08-27T14:38:12Z</time>
      </trkpt>
      <trkpt lat="42.83654" lon="2.48172">
        <ele>394.6</ele>
        <time>2020-08-27T14:41:54Z</time>
      </trkpt>
      <trkpt lat="42.83581" lon="2.48065">
        <ele>392.9</ele>
        <time>2020-08-27T14:42:24Z</time>
      </trkpt>
      <trkpt lat="42.83485" lon="2.481">
        <ele>392.4</ele>
        <time>2020-08-27T14:42:54Z</time>
      </trkpt>
      <trkpt lat="42.83394" lon="2.48139">
        <ele>392.2</ele>
        <time>2020-08-27T14:43:24Z</time>
      </trkpt>
      <trkpt lat="42.83391" lon="2.48272">
        <ele>392.1</ele>
        <time>2020-08-27T14:43:44Z</time>
      </trkpt>
      <trkpt lat="42.83444" lon="2.48387">
        <ele>392.1</ele>
        <time>2020-08-27T14:44:04Z</time>
      </trkpt>
      <trkpt lat="42.83518" lon="2.4848">
        <ele>391.9</ele>
        <time>2020-08-27T14:44:24Z</time>
      </trkpt>
      <trkpt lat="42.8352" lon="2.4862">
        <ele>391.5</ele>
        <time>2020-08-27T14:44:44Z</time>
      </trkpt>
      <trkpt lat="42.83581" lon="2.48744">
        <ele>391</ele>
        <time>2020-08-27T14:45:04Z</time>
      </trkpt>
      <trkpt lat="42.83613" lon="2.48877">
        <ele>390.3</ele>
        <time>2020-08-27T14:45:24Z</time>
      </trkpt>
      <trkpt lat="42.83599" lon="2.4901">
        <ele>389.4</ele>
        <time>2020-08-27T14:45:44Z</time>
      </trkpt>
      <trkpt lat="42.83595" lon="2.49133">
        <ele>388.1</ele>
        <time>2020-08-27T14:46:19Z</time>
      </trkpt>
      <trkpt lat="42.83513" lon="2.49197">
        <ele>385</ele>
        <time>2020-08-27T14:46:39Z</time>
      </trkpt>
      <trkpt lat="42.83424" lon="2.49226">
        <ele>382.8</ele>
        <time>2020-08-27T14:46:49Z</time>
      </trkpt>
      <trkpt lat="42.83374" lon="2.49339">
        <ele>379.8</ele>
        <time>2020-08-27T14:46:59Z</time>
      </trkpt>
      <trkpt lat="42.83323" lon="2.49445">
        <ele>375.4</ele>
        <time>2020-08-27T14:47:09Z</time>
      </trkpt>
      <trkpt lat="42.83244" lon="2.49561">
        <ele>371.4</ele>
        <time>2020-08-27T14:47:19Z</time>
      </trkpt>
      <trkpt lat="42.83182" lon="2.49654">
        <ele>367.1</ele>
        <time>2020-08-27T14:47:29Z</time>
      </trkpt>
      <trkpt lat="42.83073" lon="2.49752">
        <ele>351.6</ele>
        <time>2020-08-27T14:47:49Z</time>
      </trkpt>
      <trkpt lat="42.8298" lon="2.49729">
        <ele>344.8</ele>
        <time>2020-08-27T14:47:59Z</time>
      </trkpt>
      <trkpt lat="42.82884" lon="2.49699">
        <ele>338.1</ele>
        <time>2020-08-27T14:48:09Z</time>
      </trkpt>
      <trkpt lat="42.82791" lon="2.4959">
        <ele>330.8</ele>
        <time>2020-08-27T14:48:24Z</time>
      </trkpt>
      <trkpt lat="42.82676" lon="2.49634">
        <ele>322.8</ele>
        <time>2020-08-27T14:48:39Z</time>
      </trkpt>
      <trkpt lat="42.82593" lon="2.49679">
        <ele>317.1</ele>
        <time>2020-08-27T14:48:49Z</time>
      </trkpt>
      <trkpt lat="42.82474" lon="2.49751">
        <ele>312.4</ele>
        <time>2020-08-27T14:49:04Z</time>
      </trkpt>
      <trkpt lat="42.8237" lon="2.4977">
        <ele>295.5</ele>
        <time>2020-08-27T14:52:14Z</time>
      </trkpt>
      <trkpt lat="42.8226" lon="2.49807">
        <ele>293.9</ele>
        <time>2020-08-27T14:52:34Z</time>
      </trkpt>
      <trkpt lat="42.82149" lon="2.49804">
        <ele>293.4</ele>
        <time>2020-08-27T14:52:54Z</time>
      </trkpt>
      <trkpt lat="42.82033" lon="2.49763">
        <ele>292.3</ele>
        <time>2020-08-27T14:53:14Z</time>
      </trkpt>
      <trkpt lat="42.81925" lon="2.4979">
        <ele>291.5</ele>
        <time>2020-08-27T14:53:29Z</time>
      </trkpt>
      <trkpt lat="42.81832" lon="2.4984">
        <ele>290.8</ele>
        <time>2020-08-27T14:53:39Z</time>
      </trkpt>
      <trkpt lat="42.81748" lon="2.49924">
        <ele>290.5</ele>
        <time>2020-08-27T14:53:49Z</time>
      </trkpt>
      <trkpt lat="42.81673" lon="2.49992">
        <ele>289.1</ele>
        <time>2020-08-27T14:53:59Z</time>
      </trkpt>
      <trkpt lat="42.81575" lon="2.50047">
        <ele>287.3</ele>
        <time>2020-08-27T14:54:14Z</time>
      </trkpt>
      <trkpt lat="42.81486" lon="2.50106">
        <ele>279.2</ele>
        <time>2020-08-27T14:54:34Z</time>
      </trkpt>
      <trkpt lat="42.81399" lon="2.50172">
        <ele>276.4</ele>
        <time>2020-08-27T14:54:59Z</time>
      </trkpt>
      <trkpt lat="42.81309" lon="2.50238">
        <ele>274.1</ele>
        <time>2020-08-27T14:55:29Z</time>
      </trkpt>
    </trkseg>
  </trk>
</gpx>